UAE721 OMDB-WSSS
Flight info
| Callsign | UAE721 |
|---|---|
| Flight time | 6h 57m |
| Altitude | 39000 |
| Route | IVURO M677 LALDO B505 NADSO A777 VAXIM P307 PARAR N571 BIKEN/N0485F410 N571 GUNIP M630 NIREN Y511 TOPOR A464 ARAMA DCT TEBUN TEBUN1B |
| Aircraft | A359/H-SDE2E3GHIJ3J4J5LM1ORWXY/LB1D1 |
Departure
| Time | 2026-04-23 07:09 |
|---|---|
| Airport | Dubai International Airport (OMDB) |
Arrival
| Time | 2026-04-23 14:06 |
|---|---|
| Airport | Singapore Changi Airport (WSSS) |
| Time | Latitude | Longitude | Altitude | Speed | Heading |
|---|---|---|---|---|---|
| 2026-04-23 06:13 | 25.24284 | 55.37529 | 28 ft | 0 kts | 207° |
| 2026-04-23 06:57 | 25.24285 | 55.37529 | 45 ft | 2 kts | 208° |
| 2026-04-23 06:57 | 25.24293 | 55.37535 | 34 ft | 4 kts | 214° |
| 2026-04-23 06:57 | 25.24316 | 55.37552 | 38 ft | 4 kts | 211° |
| 2026-04-23 06:57 | 25.24338 | 55.37565 | 26 ft | 4 kts | 182° |
| 2026-04-23 06:58 | 25.24358 | 55.37556 | 26 ft | 4 kts | 127° |
| 2026-04-23 06:58 | 25.24371 | 55.37534 | 27 ft | 1 kts | 121° |
| 2026-04-23 06:58 | 25.24374 | 55.37529 | 27 ft | 0 kts | 121° |
| 2026-04-23 07:01 | 25.24358 | 55.37558 | 30 ft | 10 kts | 120° |
| 2026-04-23 07:01 | 25.24322 | 55.37632 | 28 ft | 11 kts | 104° |
| 2026-04-23 07:01 | 25.24339 | 55.37702 | 28 ft | 9 kts | 64° |
| 2026-04-23 07:01 | 25.24338 | 55.37766 | 28 ft | 9 kts | 110° |
| 2026-04-23 07:02 | 25.24307 | 55.37833 | 28 ft | 10 kts | 120° |
| 2026-04-23 07:02 | 25.24267 | 55.37908 | 28 ft | 12 kts | 123° |
| 2026-04-23 07:02 | 25.24217 | 55.37994 | 28 ft | 14 kts | 123° |
| 2026-04-23 07:02 | 25.24160 | 55.38090 | 28 ft | 16 kts | 123° |
| 2026-04-23 07:03 | 25.24105 | 55.38196 | 28 ft | 16 kts | 120° |
| 2026-04-23 07:03 | 25.24046 | 55.38309 | 28 ft | 18 kts | 120° |
| 2026-04-23 07:03 | 25.23984 | 55.38428 | 28 ft | 19 kts | 120° |
| 2026-04-23 07:03 | 25.23918 | 55.38542 | 28 ft | 18 kts | 121° |
| 2026-04-23 07:04 | 25.23850 | 55.38659 | 28 ft | 18 kts | 122° |
| 2026-04-23 07:04 | 25.23782 | 55.38782 | 28 ft | 19 kts | 120° |
| 2026-04-23 07:04 | 25.23713 | 55.38912 | 28 ft | 20 kts | 120° |
| 2026-04-23 07:04 | 25.23639 | 55.39040 | 28 ft | 20 kts | 121° |
| 2026-04-23 07:05 | 25.23565 | 55.39175 | 28 ft | 21 kts | 121° |
| 2026-04-23 07:05 | 25.23488 | 55.39317 | 28 ft | 22 kts | 122° |
| 2026-04-23 07:05 | 25.23421 | 55.39439 | 28 ft | 11 kts | 115° |
| 2026-04-23 07:05 | 25.23434 | 55.39515 | 28 ft | 11 kts | 40° |
| 2026-04-23 07:06 | 25.23501 | 55.39563 | 28 ft | 12 kts | 32° |
| 2026-04-23 07:06 | 25.23578 | 55.39617 | 28 ft | 14 kts | 32° |
| 2026-04-23 07:06 | 25.23605 | 55.39617 | 28 ft | 1 kts | 316° |
| 2026-04-23 07:06 | 25.23605 | 55.39611 | 28 ft | 2 kts | 285° |
| 2026-04-23 07:07 | 25.23595 | 55.39602 | 27 ft | 3 kts | 206° |
| 2026-04-23 07:07 | 25.23570 | 55.39580 | 28 ft | 5 kts | 252° |
| 2026-04-23 07:07 | 25.23574 | 55.39537 | 28 ft | 8 kts | 279° |
| 2026-04-23 07:07 | 25.23598 | 55.39477 | 28 ft | 9 kts | 298° |
| 2026-04-23 07:08 | 25.23717 | 55.39251 | 28 ft | 66 kts | 302° |
| 2026-04-23 07:08 | 25.24069 | 55.38619 | 28 ft | 127 kts | 302° |
| 2026-04-23 07:08 | 25.24617 | 55.37644 | 29 ft | 174 kts | 301° |
| 2026-04-23 07:08 | 25.25263 | 55.36505 | 648 ft | 168 kts | 301° |
| 2026-04-23 07:09 | 25.25895 | 55.35431 | 1223 ft | 167 kts | 302° |
| 2026-04-23 07:09 | 25.26562 | 55.34351 | 1576 ft | 171 kts | 302° |
| 2026-04-23 07:09 | 25.27249 | 55.33234 | 1743 ft | 186 kts | 302° |
| 2026-04-23 07:09 | 25.28013 | 55.31986 | 1954 ft | 201 kts | 302° |
| 2026-04-23 07:10 | 25.28865 | 55.30721 | 2128 ft | 219 kts | 312° |
| 2026-04-23 07:10 | 25.30200 | 55.29773 | 2330 ft | 241 kts | 344° |
| 2026-04-23 07:10 | 25.31889 | 55.29842 | 2616 ft | 251 kts | 22° |
| 2026-04-23 07:10 | 25.33210 | 55.31049 | 3138 ft | 250 kts | 60° |
| 2026-04-23 07:11 | 25.33629 | 55.32878 | 3666 ft | 247 kts | 95° |
| 2026-04-23 07:11 | 25.33414 | 55.34760 | 4218 ft | 246 kts | 100° |
| 2026-04-23 07:11 | 25.33193 | 55.36639 | 4778 ft | 247 kts | 97° |
| 2026-04-23 07:12 | 25.32972 | 55.40734 | 5645 ft | 280 kts | 93° |
| 2026-04-23 07:12 | 25.32934 | 55.42906 | 6102 ft | 285 kts | 92° |
| 2026-04-23 07:12 | 25.32916 | 55.45121 | 6555 ft | 289 kts | 92° |
| 2026-04-23 07:12 | 25.32907 | 55.47355 | 6980 ft | 293 kts | 92° |
| 2026-04-23 07:13 | 25.32902 | 55.49622 | 7437 ft | 296 kts | 92° |
| 2026-04-23 07:13 | 25.32899 | 55.51912 | 7919 ft | 300 kts | 91° |
| 2026-04-23 07:13 | 25.32899 | 55.54225 | 8381 ft | 302 kts | 92° |
| 2026-04-23 07:13 | 25.32899 | 55.56556 | 8878 ft | 305 kts | 92° |
| 2026-04-23 07:14 | 25.32898 | 55.58916 | 9353 ft | 308 kts | 92° |
| 2026-04-23 07:14 | 25.32896 | 55.61295 | 9823 ft | 311 kts | 91° |
| 2026-04-23 07:14 | 25.32895 | 55.63703 | 10211 ft | 317 kts | 92° |
| 2026-04-23 07:14 | 25.32892 | 55.66192 | 10422 ft | 329 kts | 91° |
| 2026-04-23 07:15 | 25.32890 | 55.67888 | 10563 ft | 337 kts | 91° |
| 2026-04-23 07:15 | 25.32887 | 55.71251 | 10822 ft | 351 kts | 92° |
| 2026-04-23 07:15 | 25.32884 | 55.73999 | 11023 ft | 362 kts | 92° |
| 2026-04-23 07:15 | 25.32880 | 55.76823 | 11206 ft | 372 kts | 92° |
| 2026-04-23 07:16 | 25.32876 | 55.79726 | 11400 ft | 381 kts | 92° |
| 2026-04-23 07:16 | 25.32871 | 55.82688 | 11586 ft | 390 kts | 92° |
| 2026-04-23 07:16 | 25.32865 | 55.85701 | 11888 ft | 394 kts | 92° |
| 2026-04-23 07:16 | 25.32861 | 55.88744 | 12250 ft | 396 kts | 92° |
| 2026-04-23 07:17 | 25.32854 | 55.91806 | 12621 ft | 399 kts | 92° |
| 2026-04-23 07:17 | 25.32847 | 55.94882 | 12958 ft | 401 kts | 92° |
| 2026-04-23 07:17 | 25.32839 | 55.97930 | 13316 ft | 403 kts | 92° |
| 2026-04-23 07:17 | 25.32830 | 56.01038 | 13692 ft | 404 kts | 92° |
| 2026-04-23 07:18 | 25.32819 | 56.04149 | 13995 ft | 407 kts | 92° |
| 2026-04-23 07:18 | 25.32809 | 56.07287 | 14318 ft | 408 kts | 92° |
| 2026-04-23 07:18 | 25.32796 | 56.10436 | 14665 ft | 410 kts | 92° |
| 2026-04-23 07:18 | 25.32784 | 56.13600 | 14974 ft | 412 kts | 92° |
| 2026-04-23 07:19 | 25.32767 | 56.16778 | 15299 ft | 414 kts | 93° |
| 2026-04-23 07:19 | 25.32616 | 56.19956 | 15649 ft | 415 kts | 97° |
| 2026-04-23 07:19 | 25.32337 | 56.23135 | 15972 ft | 416 kts | 98° |
| 2026-04-23 07:19 | 25.32011 | 56.26321 | 16304 ft | 418 kts | 99° |
| 2026-04-23 07:20 | 25.31683 | 56.29524 | 16632 ft | 421 kts | 98° |
| 2026-04-23 07:20 | 25.31369 | 56.32747 | 16957 ft | 423 kts | 98° |
| 2026-04-23 07:20 | 25.31071 | 56.35993 | 17255 ft | 426 kts | 98° |
| 2026-04-23 07:20 | 25.30785 | 56.39262 | 17585 ft | 428 kts | 98° |
| 2026-04-23 07:21 | 25.30550 | 56.42546 | 17896 ft | 431 kts | 95° |
| 2026-04-23 07:21 | 25.30431 | 56.45868 | 18198 ft | 434 kts | 94° |
| 2026-04-23 07:21 | 25.30368 | 56.49208 | 18464 ft | 436 kts | 93° |
| 2026-04-23 07:21 | 25.30315 | 56.52571 | 18720 ft | 438 kts | 93° |
| 2026-04-23 07:22 | 25.30246 | 56.55942 | 18995 ft | 439 kts | 94° |
| 2026-04-23 07:22 | 25.30072 | 56.58166 | 19188 ft | 438 kts | 100° |
| 2026-04-23 07:22 | 25.29114 | 56.62534 | 19505 ft | 438 kts | 111° |
| 2026-04-23 07:22 | 25.28444 | 56.64640 | 19666 ft | 439 kts | 113° |
| 2026-04-23 07:23 | 25.27331 | 56.67785 | 19907 ft | 440 kts | 115° |
| 2026-04-23 07:23 | 25.25753 | 56.71928 | 20227 ft | 443 kts | 116° |
| 2026-04-23 07:23 | 25.24534 | 56.75056 | 20475 ft | 445 kts | 116° |
| 2026-04-23 07:23 | 25.23307 | 56.78205 | 20726 ft | 447 kts | 116° |
| 2026-04-23 07:24 | 25.22482 | 56.80334 | 20881 ft | 448 kts | 116° |
| 2026-04-23 07:24 | 25.21259 | 56.83512 | 21089 ft | 450 kts | 116° |
| 2026-04-23 07:24 | 25.20042 | 56.86693 | 21101 ft | 450 kts | 116° |
| 2026-04-23 07:24 | 25.18829 | 56.89880 | 21098 ft | 450 kts | 115° |
| 2026-04-23 07:25 | 25.17615 | 56.93073 | 21095 ft | 451 kts | 115° |
| 2026-04-23 07:25 | 25.16403 | 56.96259 | 21097 ft | 451 kts | 115° |
| 2026-04-23 07:25 | 25.15204 | 56.99407 | 21092 ft | 451 kts | 115° |
| 2026-04-23 07:25 | 25.13972 | 57.02639 | 21096 ft | 450 kts | 115° |
| 2026-04-23 07:26 | 25.12776 | 57.05774 | 21096 ft | 450 kts | 115° |
| 2026-04-23 07:26 | 25.11560 | 57.08958 | 21096 ft | 450 kts | 115° |
| 2026-04-23 07:26 | 25.10344 | 57.12139 | 21099 ft | 450 kts | 115° |
| 2026-04-23 07:26 | 25.09126 | 57.15322 | 21096 ft | 449 kts | 115° |
| 2026-04-23 07:27 | 25.07911 | 57.18493 | 21096 ft | 449 kts | 115° |
| 2026-04-23 07:27 | 25.06695 | 57.21667 | 21096 ft | 449 kts | 115° |
| 2026-04-23 07:27 | 25.05482 | 57.24830 | 21096 ft | 449 kts | 115° |
| 2026-04-23 07:27 | 25.04383 | 57.27694 | 21095 ft | 449 kts | 115° |
| 2026-04-23 07:28 | 25.03160 | 57.30876 | 21244 ft | 451 kts | 115° |
| 2026-04-23 07:28 | 25.01933 | 57.34066 | 21516 ft | 452 kts | 115° |
| 2026-04-23 07:28 | 25.00701 | 57.37269 | 21756 ft | 454 kts | 116° |
| 2026-04-23 07:28 | 24.99463 | 57.40485 | 21953 ft | 456 kts | 116° |
| 2026-04-23 07:29 | 24.98234 | 57.43672 | 22192 ft | 458 kts | 115° |
| 2026-04-23 07:29 | 24.96984 | 57.46913 | 22413 ft | 460 kts | 115° |
| 2026-04-23 07:29 | 24.95732 | 57.50159 | 22599 ft | 462 kts | 116° |
| 2026-04-23 07:29 | 24.94467 | 57.53436 | 22829 ft | 464 kts | 116° |
| 2026-04-23 07:30 | 24.93200 | 57.56714 | 23018 ft | 466 kts | 116° |
| 2026-04-23 07:30 | 24.91931 | 57.59996 | 23236 ft | 467 kts | 116° |
| 2026-04-23 07:30 | 24.90654 | 57.63297 | 23415 ft | 469 kts | 116° |
| 2026-04-23 07:30 | 24.89370 | 57.66612 | 23614 ft | 471 kts | 116° |
| 2026-04-23 07:31 | 24.88082 | 57.69936 | 23790 ft | 472 kts | 116° |
| 2026-04-23 07:31 | 24.86793 | 57.73260 | 23969 ft | 473 kts | 116° |
| 2026-04-23 07:31 | 24.85496 | 57.76602 | 24158 ft | 475 kts | 116° |
| 2026-04-23 07:31 | 24.84195 | 57.79951 | 24322 ft | 476 kts | 115° |
| 2026-04-23 07:32 | 24.82889 | 57.83308 | 24489 ft | 477 kts | 115° |
| 2026-04-23 07:32 | 24.81545 | 57.86601 | 24675 ft | 478 kts | 117° |
| 2026-04-23 07:32 | 24.80088 | 57.89942 | 24852 ft | 479 kts | 118° |
| 2026-04-23 07:32 | 24.78616 | 57.93233 | 25015 ft | 480 kts | 118° |
| 2026-04-23 07:33 | 24.77156 | 57.96486 | 25187 ft | 481 kts | 118° |
| 2026-04-23 07:33 | 24.75678 | 57.99796 | 25355 ft | 483 kts | 118° |
| 2026-04-23 07:33 | 24.74204 | 58.03125 | 25528 ft | 484 kts | 117° |
| 2026-04-23 07:33 | 24.72737 | 58.06459 | 25699 ft | 485 kts | 117° |
| 2026-04-23 07:34 | 24.71378 | 58.09556 | 25856 ft | 487 kts | 117° |
| 2026-04-23 07:34 | 24.69908 | 58.12913 | 26032 ft | 488 kts | 117° |
| 2026-04-23 07:34 | 24.68432 | 58.16284 | 26200 ft | 489 kts | 117° |
| 2026-04-23 07:34 | 24.66952 | 58.19661 | 26378 ft | 491 kts | 117° |
| 2026-04-23 07:35 | 24.65465 | 58.23048 | 26543 ft | 492 kts | 117° |
| 2026-04-23 07:35 | 24.63974 | 58.26444 | 26715 ft | 494 kts | 117° |
| 2026-04-23 07:35 | 24.62481 | 58.29839 | 26885 ft | 495 kts | 117° |
| 2026-04-23 07:35 | 24.60981 | 58.33249 | 27070 ft | 496 kts | 117° |
| 2026-04-23 07:36 | 24.59476 | 58.36664 | 27237 ft | 498 kts | 117° |
| 2026-04-23 07:36 | 24.57964 | 58.40095 | 27425 ft | 499 kts | 117° |
| 2026-04-23 07:36 | 24.56449 | 58.43530 | 27598 ft | 500 kts | 117° |
| 2026-04-23 07:36 | 24.54929 | 58.46975 | 27809 ft | 502 kts | 117° |
| 2026-04-23 07:37 | 24.53405 | 58.50424 | 27971 ft | 503 kts | 117° |
| 2026-04-23 07:37 | 24.51870 | 58.53895 | 28158 ft | 505 kts | 117° |
| 2026-04-23 07:37 | 24.50333 | 58.57368 | 28358 ft | 506 kts | 117° |
| 2026-04-23 07:37 | 24.48792 | 58.60850 | 28545 ft | 508 kts | 117° |
| 2026-04-23 07:38 | 24.47243 | 58.64344 | 28695 ft | 510 kts | 117° |
| 2026-04-23 07:38 | 24.45689 | 58.67848 | 28871 ft | 512 kts | 117° |
| 2026-04-23 07:38 | 24.44131 | 58.71360 | 29055 ft | 513 kts | 117° |
| 2026-04-23 07:38 | 24.42564 | 58.74889 | 29239 ft | 514 kts | 117° |
| 2026-04-23 07:39 | 24.41015 | 58.78382 | 29413 ft | 516 kts | 117° |
| 2026-04-23 07:39 | 24.39424 | 58.81967 | 29607 ft | 517 kts | 117° |
| 2026-04-23 07:39 | 24.37906 | 58.85380 | 29778 ft | 519 kts | 117° |
| 2026-04-23 07:39 | 24.36318 | 58.88947 | 29952 ft | 520 kts | 117° |
| 2026-04-23 07:40 | 24.34905 | 58.92117 | 30068 ft | 522 kts | 117° |
| 2026-04-23 07:40 | 24.33311 | 58.95693 | 30197 ft | 524 kts | 117° |
| 2026-04-23 07:40 | 24.31702 | 58.99298 | 30334 ft | 526 kts | 116° |
| 2026-04-23 07:40 | 24.30092 | 59.02906 | 30463 ft | 528 kts | 116° |
| 2026-04-23 07:41 | 24.28470 | 59.06537 | 30586 ft | 530 kts | 116° |
| 2026-04-23 07:41 | 24.26851 | 59.10160 | 30736 ft | 532 kts | 116° |
| 2026-04-23 07:41 | 24.25218 | 59.13809 | 30866 ft | 533 kts | 116° |
| 2026-04-23 07:41 | 24.23580 | 59.17468 | 31022 ft | 535 kts | 116° |
| 2026-04-23 07:42 | 24.21940 | 59.21127 | 31158 ft | 537 kts | 116° |
| 2026-04-23 07:42 | 24.20309 | 59.24765 | 31363 ft | 537 kts | 116° |
| 2026-04-23 07:42 | 24.18661 | 59.28438 | 31542 ft | 538 kts | 116° |
| 2026-04-23 07:42 | 24.17007 | 59.32121 | 31727 ft | 538 kts | 116° |
| 2026-04-23 07:43 | 24.15357 | 59.35789 | 32020 ft | 537 kts | 116° |
| 2026-04-23 07:43 | 24.13702 | 59.39468 | 32195 ft | 538 kts | 116° |
| 2026-04-23 07:43 | 24.12048 | 59.43144 | 32385 ft | 538 kts | 116° |
| 2026-04-23 07:43 | 24.10469 | 59.46646 | 32497 ft | 540 kts | 115° |
| 2026-04-23 07:44 | 24.08935 | 59.50050 | 32667 ft | 541 kts | 115° |
| 2026-04-23 07:44 | 24.07270 | 59.53750 | 32866 ft | 541 kts | 115° |
| 2026-04-23 07:44 | 24.05605 | 59.57441 | 33075 ft | 542 kts | 115° |
| 2026-04-23 07:44 | 24.03933 | 59.61138 | 33266 ft | 542 kts | 115° |
| 2026-04-23 07:45 | 24.02263 | 59.64823 | 33637 ft | 539 kts | 115° |
| 2026-04-23 07:45 | 24.00601 | 59.68491 | 33851 ft | 539 kts | 115° |
| 2026-04-23 07:45 | 23.98933 | 59.72172 | 33992 ft | 541 kts | 115° |
| 2026-04-23 07:45 | 23.97264 | 59.75852 | 34179 ft | 541 kts | 115° |
| 2026-04-23 07:46 | 23.95592 | 59.79536 | 34358 ft | 541 kts | 115° |
| 2026-04-23 07:46 | 23.93918 | 59.83223 | 34529 ft | 541 kts | 115° |
| 2026-04-23 07:46 | 23.92243 | 59.86907 | 34654 ft | 543 kts | 115° |
| 2026-04-23 07:46 | 23.90560 | 59.90609 | 34871 ft | 541 kts | 115° |
| 2026-04-23 07:47 | 23.88919 | 59.94214 | 35354 ft | 534 kts | 115° |
| 2026-04-23 07:47 | 23.87263 | 59.97848 | 35542 ft | 535 kts | 116° |
| 2026-04-23 07:47 | 23.85601 | 60.01495 | 35635 ft | 537 kts | 116° |
| 2026-04-23 07:47 | 23.83935 | 60.05148 | 35801 ft | 537 kts | 116° |
| 2026-04-23 07:48 | 23.82267 | 60.08801 | 35962 ft | 538 kts | 116° |
| 2026-04-23 07:48 | 23.80597 | 60.12458 | 36127 ft | 538 kts | 116° |
| 2026-04-23 07:48 | 23.78921 | 60.16123 | 36286 ft | 539 kts | 116° |
| 2026-04-23 07:48 | 23.77248 | 60.19778 | 36561 ft | 536 kts | 116° |
| 2026-04-23 07:49 | 23.75589 | 60.23400 | 36937 ft | 532 kts | 116° |
| 2026-04-23 07:49 | 23.73933 | 60.27015 | 37047 ft | 533 kts | 116° |
| 2026-04-23 07:49 | 23.72266 | 60.30648 | 37100 ft | 536 kts | 116° |
| 2026-04-23 07:49 | 23.70598 | 60.34282 | 37254 ft | 536 kts | 116° |
| 2026-04-23 07:50 | 23.68925 | 60.37924 | 37398 ft | 537 kts | 116° |
| 2026-04-23 07:50 | 23.67251 | 60.41565 | 37570 ft | 537 kts | 116° |
| 2026-04-23 07:50 | 23.65573 | 60.45214 | 37714 ft | 537 kts | 116° |
| 2026-04-23 07:50 | 23.63901 | 60.48846 | 37953 ft | 535 kts | 116° |
| 2026-04-23 07:51 | 23.62229 | 60.52475 | 38231 ft | 533 kts | 116° |
| 2026-04-23 07:51 | 23.60584 | 60.56042 | 38342 ft | 534 kts | 116° |
| 2026-04-23 07:51 | 23.58919 | 60.59650 | 38429 ft | 535 kts | 116° |
| 2026-04-23 07:51 | 23.57244 | 60.63277 | 38550 ft | 535 kts | 117° |
| 2026-04-23 07:52 | 23.55574 | 60.66891 | 38666 ft | 535 kts | 117° |
| 2026-04-23 07:52 | 23.52217 | 60.74146 | 38798 ft | 536 kts | 117° |
| 2026-04-23 07:53 | 23.48846 | 60.81421 | 38843 ft | 536 kts | 116° |
| 2026-04-23 07:53 | 23.45710 | 60.88177 | 38849 ft | 535 kts | 116° |
| 2026-04-23 07:54 | 23.42353 | 60.95401 | 38848 ft | 534 kts | 117° |
| 2026-04-23 07:54 | 23.38994 | 61.02619 | 38850 ft | 534 kts | 117° |
| 2026-04-23 07:55 | 23.35637 | 61.09820 | 38848 ft | 532 kts | 116° |
| 2026-04-23 07:55 | 23.32285 | 61.17000 | 38863 ft | 531 kts | 116° |
| 2026-04-23 07:56 | 23.28990 | 61.24203 | 38862 ft | 531 kts | 115° |
| 2026-04-23 07:56 | 23.25795 | 61.31455 | 38846 ft | 532 kts | 115° |
| 2026-04-23 07:57 | 23.22600 | 61.38701 | 38849 ft | 529 kts | 115° |
| 2026-04-23 07:57 | 23.19405 | 61.45887 | 38869 ft | 527 kts | 115° |
| 2026-04-23 07:58 | 23.16206 | 61.53050 | 38853 ft | 527 kts | 115° |
| 2026-04-23 07:58 | 23.12991 | 61.60235 | 38849 ft | 530 kts | 115° |
| 2026-04-23 07:59 | 23.09768 | 61.67432 | 38868 ft | 531 kts | 115° |
| 2026-04-23 07:59 | 23.06532 | 61.74645 | 38868 ft | 530 kts | 115° |
| 2026-04-23 08:00 | 23.03294 | 61.81846 | 38871 ft | 531 kts | 115° |
| 2026-04-23 08:00 | 23.00074 | 61.89010 | 38871 ft | 531 kts | 115° |
| 2026-04-23 08:01 | 22.96834 | 61.96205 | 38861 ft | 530 kts | 115° |
| 2026-04-23 08:01 | 22.93593 | 62.03388 | 38868 ft | 531 kts | 115° |
| 2026-04-23 08:02 | 22.90342 | 62.10584 | 38867 ft | 531 kts | 115° |
| 2026-04-23 08:02 | 22.87084 | 62.17782 | 38873 ft | 531 kts | 115° |
| 2026-04-23 08:03 | 22.83825 | 62.24976 | 38865 ft | 531 kts | 116° |
| 2026-04-23 08:03 | 22.80566 | 62.32156 | 38869 ft | 529 kts | 116° |
| 2026-04-23 08:04 | 22.77313 | 62.39314 | 38871 ft | 529 kts | 116° |
| 2026-04-23 08:04 | 22.74055 | 62.46471 | 38887 ft | 529 kts | 116° |
| 2026-04-23 08:05 | 22.71019 | 62.53133 | 38883 ft | 529 kts | 116° |
| 2026-04-23 08:05 | 22.67782 | 62.60225 | 38887 ft | 528 kts | 116° |
| 2026-04-23 08:06 | 22.64517 | 62.67368 | 38882 ft | 528 kts | 116° |
| 2026-04-23 08:06 | 22.61398 | 62.74181 | 38883 ft | 528 kts | 116° |
| 2026-04-23 08:07 | 22.58133 | 62.81305 | 38877 ft | 528 kts | 116° |
| 2026-04-23 08:07 | 22.54863 | 62.88428 | 38878 ft | 528 kts | 116° |
| 2026-04-23 08:08 | 22.51592 | 62.95545 | 38880 ft | 529 kts | 116° |
| 2026-04-23 08:08 | 22.48309 | 63.02676 | 38878 ft | 529 kts | 116° |
| 2026-04-23 08:09 | 22.45022 | 63.09806 | 38880 ft | 529 kts | 116° |
| 2026-04-23 08:09 | 22.41765 | 63.16937 | 38882 ft | 529 kts | 116° |
| 2026-04-23 08:10 | 22.38602 | 63.24049 | 38886 ft | 528 kts | 115° |
| 2026-04-23 08:10 | 22.33830 | 63.34764 | 38878 ft | 528 kts | 115° |
| 2026-04-23 08:11 | 22.31336 | 63.40331 | 38878 ft | 528 kts | 116° |
| 2026-04-23 08:11 | 22.28121 | 63.47487 | 38887 ft | 528 kts | 116° |
| 2026-04-23 08:12 | 22.24906 | 63.54633 | 38891 ft | 528 kts | 116° |
| 2026-04-23 08:12 | 22.21693 | 63.61765 | 38890 ft | 528 kts | 116° |
| 2026-04-23 08:13 | 22.18496 | 63.68853 | 38887 ft | 528 kts | 116° |
| 2026-04-23 08:13 | 22.15277 | 63.75979 | 38889 ft | 528 kts | 116° |
| 2026-04-23 08:14 | 22.12051 | 63.83110 | 38883 ft | 529 kts | 116° |
| 2026-04-23 08:14 | 22.08824 | 63.90234 | 38899 ft | 529 kts | 116° |
| 2026-04-23 08:15 | 22.05593 | 63.97355 | 38889 ft | 529 kts | 116° |
| 2026-04-23 08:15 | 22.02359 | 64.04473 | 38896 ft | 529 kts | 116° |
| 2026-04-23 08:16 | 21.99118 | 64.11599 | 38885 ft | 528 kts | 116° |
| 2026-04-23 08:16 | 21.95880 | 64.18707 | 38889 ft | 529 kts | 116° |
| 2026-04-23 08:17 | 21.92634 | 64.25821 | 38886 ft | 529 kts | 116° |
| 2026-04-23 08:17 | 21.89409 | 64.32880 | 38876 ft | 529 kts | 116° |
| 2026-04-23 08:18 | 21.86344 | 64.39579 | 38885 ft | 529 kts | 116° |
| 2026-04-23 08:18 | 21.83089 | 64.46685 | 38889 ft | 530 kts | 116° |
| 2026-04-23 08:19 | 21.79824 | 64.53804 | 38887 ft | 530 kts | 116° |
| 2026-04-23 08:19 | 21.76694 | 64.60618 | 38886 ft | 530 kts | 116° |
| 2026-04-23 08:20 | 21.73424 | 64.67725 | 38885 ft | 530 kts | 116° |
| 2026-04-23 08:20 | 21.70392 | 64.74309 | 38887 ft | 530 kts | 116° |
| 2026-04-23 08:21 | 21.67098 | 64.81452 | 38890 ft | 530 kts | 116° |
| 2026-04-23 08:21 | 21.64077 | 64.87993 | 38890 ft | 530 kts | 116° |
| 2026-04-23 08:22 | 21.60775 | 64.95134 | 38892 ft | 530 kts | 116° |
| 2026-04-23 08:22 | 21.57682 | 65.01812 | 38887 ft | 530 kts | 116° |
| 2026-04-23 08:23 | 21.54395 | 65.08902 | 38900 ft | 531 kts | 116° |
| 2026-04-23 08:23 | 21.51097 | 65.16005 | 38894 ft | 531 kts | 116° |
| 2026-04-23 08:24 | 21.47801 | 65.23096 | 38877 ft | 531 kts | 116° |
| 2026-04-23 08:24 | 21.44493 | 65.30201 | 38874 ft | 531 kts | 116° |
| 2026-04-23 08:25 | 21.41210 | 65.37243 | 38893 ft | 531 kts | 116° |
| 2026-04-23 08:25 | 21.37895 | 65.44345 | 38893 ft | 531 kts | 116° |
| 2026-04-23 08:26 | 21.34659 | 65.51268 | 38874 ft | 531 kts | 116° |
| 2026-04-23 08:26 | 21.31428 | 65.58171 | 38887 ft | 531 kts | 116° |
| 2026-04-23 08:27 | 21.28114 | 65.65242 | 38883 ft | 531 kts | 116° |
| 2026-04-23 08:27 | 21.24800 | 65.72304 | 38883 ft | 529 kts | 116° |
| 2026-04-23 08:28 | 21.21483 | 65.79362 | 38881 ft | 529 kts | 116° |
| 2026-04-23 08:28 | 21.18163 | 65.86418 | 38881 ft | 529 kts | 116° |
| 2026-04-23 08:29 | 21.15333 | 65.92424 | 38881 ft | 530 kts | 116° |
| 2026-04-23 08:29 | 21.11993 | 65.99505 | 38885 ft | 527 kts | 116° |
| 2026-04-23 08:30 | 21.08758 | 66.06496 | 38868 ft | 527 kts | 115° |
| 2026-04-23 08:30 | 21.05576 | 66.13559 | 38883 ft | 527 kts | 115° |
| 2026-04-23 08:31 | 21.02386 | 66.20621 | 38888 ft | 527 kts | 115° |
| 2026-04-23 08:31 | 20.99174 | 66.27687 | 38883 ft | 526 kts | 115° |
| 2026-04-23 08:32 | 20.95972 | 66.34707 | 38885 ft | 525 kts | 115° |
| 2026-04-23 08:32 | 20.92766 | 66.41724 | 38873 ft | 525 kts | 115° |
| 2026-04-23 08:33 | 20.89561 | 66.48732 | 38878 ft | 525 kts | 115° |
| 2026-04-23 08:33 | 20.86369 | 66.55704 | 38875 ft | 525 kts | 115° |
| 2026-04-23 08:34 | 20.83165 | 66.62692 | 38878 ft | 523 kts | 115° |
| 2026-04-23 08:34 | 20.79961 | 66.69670 | 38878 ft | 522 kts | 115° |
| 2026-04-23 08:35 | 20.76757 | 66.76640 | 38873 ft | 522 kts | 115° |
| 2026-04-23 08:35 | 20.73547 | 66.83614 | 38873 ft | 523 kts | 115° |
| 2026-04-23 08:36 | 20.70333 | 66.90587 | 38879 ft | 523 kts | 116° |
| 2026-04-23 08:36 | 20.67125 | 66.97538 | 38872 ft | 520 kts | 116° |
| 2026-04-23 08:37 | 20.63924 | 67.04466 | 38873 ft | 520 kts | 116° |
| 2026-04-23 08:37 | 20.60722 | 67.11387 | 38873 ft | 520 kts | 116° |
| 2026-04-23 08:38 | 20.57539 | 67.18258 | 38871 ft | 520 kts | 116° |
| 2026-04-23 08:38 | 20.54329 | 67.25177 | 38876 ft | 519 kts | 116° |
| 2026-04-23 08:39 | 20.51129 | 67.32068 | 38866 ft | 518 kts | 116° |
| 2026-04-23 08:39 | 20.47930 | 67.38945 | 38866 ft | 517 kts | 116° |
| 2026-04-23 08:40 | 20.44727 | 67.45824 | 38867 ft | 518 kts | 116° |
| 2026-04-23 08:40 | 20.41718 | 67.52280 | 38867 ft | 518 kts | 116° |
| 2026-04-23 08:41 | 20.38512 | 67.59147 | 38859 ft | 517 kts | 116° |
| 2026-04-23 08:41 | 20.35305 | 67.66009 | 38861 ft | 516 kts | 116° |
| 2026-04-23 08:42 | 20.32098 | 67.72862 | 38864 ft | 516 kts | 116° |
| 2026-04-23 08:42 | 20.28891 | 67.79708 | 38862 ft | 516 kts | 116° |
| 2026-04-23 08:43 | 20.25853 | 67.86183 | 38862 ft | 516 kts | 116° |
| 2026-04-23 08:43 | 20.22660 | 67.92983 | 38861 ft | 516 kts | 116° |
| 2026-04-23 08:44 | 20.19446 | 67.99817 | 38862 ft | 516 kts | 116° |
| 2026-04-23 08:44 | 20.16395 | 68.06297 | 38861 ft | 516 kts | 116° |
| 2026-04-23 08:45 | 20.13174 | 68.13130 | 38862 ft | 516 kts | 116° |
| 2026-04-23 08:45 | 20.09952 | 68.19958 | 38864 ft | 516 kts | 116° |
| 2026-04-23 08:46 | 20.06734 | 68.26769 | 38856 ft | 514 kts | 116° |
| 2026-04-23 08:46 | 20.03542 | 68.33516 | 38862 ft | 514 kts | 116° |
| 2026-04-23 08:47 | 20.00326 | 68.40306 | 38859 ft | 514 kts | 116° |
| 2026-04-23 08:47 | 19.97113 | 68.47080 | 38860 ft | 514 kts | 116° |
| 2026-04-23 08:48 | 19.93891 | 68.53866 | 38862 ft | 514 kts | 116° |
| 2026-04-23 08:48 | 19.90667 | 68.60647 | 38860 ft | 512 kts | 116° |
| 2026-04-23 08:49 | 19.87474 | 68.67357 | 38859 ft | 512 kts | 116° |
| 2026-04-23 08:49 | 19.84257 | 68.74107 | 38859 ft | 512 kts | 116° |
| 2026-04-23 08:50 | 19.81247 | 68.80480 | 38856 ft | 511 kts | 112° |
| 2026-04-23 08:50 | 19.78240 | 68.87323 | 38858 ft | 512 kts | 111° |
| 2026-04-23 08:51 | 19.75143 | 68.94139 | 38859 ft | 513 kts | 113° |
| 2026-04-23 08:51 | 19.71942 | 69.00899 | 38860 ft | 512 kts | 114° |
| 2026-04-23 08:52 | 19.68703 | 69.07640 | 38860 ft | 512 kts | 114° |
| 2026-04-23 08:52 | 19.65467 | 69.14365 | 38857 ft | 512 kts | 114° |
| 2026-04-23 08:53 | 19.62231 | 69.21093 | 38857 ft | 512 kts | 114° |
| 2026-04-23 08:53 | 19.58996 | 69.27819 | 38854 ft | 512 kts | 114° |
| 2026-04-23 08:54 | 19.55776 | 69.34505 | 38852 ft | 512 kts | 114° |
| 2026-04-23 08:54 | 19.52578 | 69.41305 | 38853 ft | 512 kts | 112° |
| 2026-04-23 08:55 | 19.49520 | 69.48056 | 38853 ft | 512 kts | 112° |
| 2026-04-23 08:55 | 19.46431 | 69.54861 | 38853 ft | 512 kts | 112° |
| 2026-04-23 08:56 | 19.43325 | 69.61648 | 38850 ft | 512 kts | 112° |
| 2026-04-23 08:56 | 19.40210 | 69.68423 | 38852 ft | 512 kts | 112° |
| 2026-04-23 08:57 | 19.37083 | 69.75214 | 38851 ft | 512 kts | 112° |
| 2026-04-23 08:57 | 19.33961 | 69.81990 | 38851 ft | 512 kts | 112° |
| 2026-04-23 08:58 | 19.30834 | 69.88769 | 38847 ft | 512 kts | 113° |
| 2026-04-23 08:58 | 19.28235 | 69.94398 | 38846 ft | 512 kts | 113° |
| 2026-04-23 08:59 | 19.24589 | 70.02285 | 38846 ft | 513 kts | 113° |
| 2026-04-23 08:59 | 19.21980 | 70.07921 | 38846 ft | 513 kts | 113° |
| 2026-04-23 09:00 | 19.18842 | 70.14696 | 38845 ft | 513 kts | 113° |
| 2026-04-23 09:00 | 19.15697 | 70.21474 | 38847 ft | 513 kts | 113° |
| 2026-04-23 09:01 | 19.12549 | 70.28252 | 38843 ft | 513 kts | 113° |
| 2026-04-23 09:01 | 19.09396 | 70.35034 | 38840 ft | 513 kts | 113° |
| 2026-04-23 09:02 | 19.06264 | 70.41762 | 38840 ft | 513 kts | 113° |
| 2026-04-23 09:02 | 19.03110 | 70.48529 | 38840 ft | 513 kts | 114° |
| 2026-04-23 09:03 | 18.99955 | 70.55291 | 38837 ft | 513 kts | 114° |
| 2026-04-23 09:03 | 18.96792 | 70.62062 | 38837 ft | 513 kts | 114° |
| 2026-04-23 09:04 | 18.93633 | 70.68816 | 38837 ft | 513 kts | 114° |
| 2026-04-23 09:04 | 18.90462 | 70.75588 | 38834 ft | 513 kts | 114° |
| 2026-04-23 09:05 | 18.87295 | 70.82345 | 38834 ft | 513 kts | 114° |
| 2026-04-23 09:05 | 18.84141 | 70.89066 | 38829 ft | 513 kts | 114° |
| 2026-04-23 09:06 | 18.80949 | 70.95859 | 38829 ft | 513 kts | 114° |
| 2026-04-23 09:06 | 18.77795 | 71.02566 | 38825 ft | 513 kts | 115° |
| 2026-04-23 09:07 | 18.74620 | 71.09308 | 38829 ft | 513 kts | 115° |
| 2026-04-23 09:07 | 18.71439 | 71.16055 | 38826 ft | 513 kts | 115° |
| 2026-04-23 09:08 | 18.68260 | 71.22791 | 38826 ft | 513 kts | 115° |
| 2026-04-23 09:08 | 18.65076 | 71.29528 | 38823 ft | 513 kts | 115° |
| 2026-04-23 09:09 | 18.61897 | 71.36249 | 38823 ft | 513 kts | 115° |
| 2026-04-23 09:09 | 18.58711 | 71.42977 | 38823 ft | 513 kts | 115° |
| 2026-04-23 09:10 | 18.53929 | 71.53060 | 38821 ft | 513 kts | 115° |
| 2026-04-23 09:11 | 18.50756 | 71.59744 | 38822 ft | 513 kts | 115° |
| 2026-04-23 09:11 | 18.47561 | 71.66466 | 38817 ft | 513 kts | 115° |
| 2026-04-23 09:12 | 18.44364 | 71.73182 | 38814 ft | 513 kts | 115° |
| 2026-04-23 09:12 | 18.41163 | 71.79898 | 38812 ft | 513 kts | 116° |
| 2026-04-23 09:13 | 18.37964 | 71.86605 | 38814 ft | 513 kts | 116° |
| 2026-04-23 09:13 | 18.34756 | 71.93324 | 38811 ft | 513 kts | 116° |
| 2026-04-23 09:14 | 18.31550 | 72.00030 | 38810 ft | 513 kts | 116° |
| 2026-04-23 09:14 | 18.28341 | 72.06734 | 38811 ft | 513 kts | 116° |
| 2026-04-23 09:15 | 18.25154 | 72.13388 | 38785 ft | 512 kts | 116° |
| 2026-04-23 09:15 | 18.21941 | 72.20085 | 38799 ft | 513 kts | 116° |
| 2026-04-23 09:16 | 18.18721 | 72.26791 | 38794 ft | 513 kts | 117° |
| 2026-04-23 09:16 | 18.15502 | 72.33486 | 38796 ft | 513 kts | 117° |
| 2026-04-23 09:17 | 18.12276 | 72.40190 | 38790 ft | 513 kts | 117° |
| 2026-04-23 09:17 | 18.09049 | 72.46889 | 38791 ft | 513 kts | 117° |
| 2026-04-23 09:18 | 18.05823 | 72.53579 | 38785 ft | 513 kts | 117° |
| 2026-04-23 09:18 | 18.02593 | 72.60269 | 38786 ft | 513 kts | 117° |
| 2026-04-23 09:19 | 17.99362 | 72.66955 | 38785 ft | 513 kts | 118° |
| 2026-04-23 09:19 | 17.96143 | 72.73608 | 38782 ft | 514 kts | 118° |
| 2026-04-23 09:20 | 17.92885 | 72.80336 | 38782 ft | 514 kts | 118° |
| 2026-04-23 09:20 | 17.89659 | 72.86988 | 38782 ft | 514 kts | 118° |
| 2026-04-23 09:21 | 17.86416 | 72.93670 | 38782 ft | 514 kts | 118° |
| 2026-04-23 09:21 | 17.83172 | 73.00348 | 38782 ft | 514 kts | 118° |
| 2026-04-23 09:22 | 17.79920 | 73.07034 | 38779 ft | 514 kts | 118° |
| 2026-04-23 09:22 | 17.76668 | 73.13711 | 38782 ft | 514 kts | 118° |
| 2026-04-23 09:23 | 17.73413 | 73.20391 | 38779 ft | 514 kts | 119° |
| 2026-04-23 09:23 | 17.70158 | 73.27062 | 38779 ft | 514 kts | 119° |
| 2026-04-23 09:24 | 17.66916 | 73.33693 | 38791 ft | 514 kts | 119° |
| 2026-04-23 09:24 | 17.63659 | 73.40350 | 38808 ft | 512 kts | 119° |
| 2026-04-23 09:25 | 17.60405 | 73.46993 | 38801 ft | 512 kts | 119° |
| 2026-04-23 09:25 | 17.57346 | 73.53231 | 38820 ft | 512 kts | 120° |
| 2026-04-23 09:26 | 17.54084 | 73.59877 | 38824 ft | 512 kts | 120° |
| 2026-04-23 09:26 | 17.50843 | 73.66475 | 38832 ft | 512 kts | 120° |
| 2026-04-23 09:27 | 17.47577 | 73.73112 | 38836 ft | 512 kts | 120° |
| 2026-04-23 09:27 | 17.44305 | 73.79759 | 38857 ft | 513 kts | 120° |
| 2026-04-23 09:28 | 17.41031 | 73.86405 | 38849 ft | 513 kts | 120° |
| 2026-04-23 09:28 | 17.37751 | 73.93051 | 38851 ft | 514 kts | 120° |
| 2026-04-23 09:29 | 17.34495 | 73.99645 | 38857 ft | 514 kts | 120° |
| 2026-04-23 09:29 | 17.31204 | 74.06300 | 38859 ft | 515 kts | 120° |
| 2026-04-23 09:30 | 17.27903 | 74.12969 | 38858 ft | 516 kts | 120° |
| 2026-04-23 09:30 | 17.24602 | 74.19637 | 38863 ft | 516 kts | 120° |
| 2026-04-23 09:31 | 17.21299 | 74.26301 | 38856 ft | 516 kts | 120° |
| 2026-04-23 09:31 | 17.17994 | 74.32968 | 38857 ft | 516 kts | 120° |
| 2026-04-23 09:32 | 17.14686 | 74.39630 | 38860 ft | 516 kts | 121° |
| 2026-04-23 09:32 | 17.11374 | 74.46295 | 38864 ft | 516 kts | 121° |
| 2026-04-23 09:33 | 17.08065 | 74.52952 | 38870 ft | 516 kts | 121° |
| 2026-04-23 09:33 | 17.04751 | 74.59608 | 38873 ft | 516 kts | 121° |
| 2026-04-23 09:34 | 17.01462 | 74.66207 | 38885 ft | 516 kts | 121° |
| 2026-04-23 09:34 | 16.98147 | 74.72853 | 38884 ft | 516 kts | 121° |
| 2026-04-23 09:35 | 16.94828 | 74.79499 | 38879 ft | 515 kts | 121° |
| 2026-04-23 09:35 | 16.91509 | 74.86138 | 38882 ft | 516 kts | 121° |
| 2026-04-23 09:36 | 16.88187 | 74.92779 | 38882 ft | 516 kts | 121° |
| 2026-04-23 09:36 | 16.84887 | 74.99367 | 38881 ft | 516 kts | 121° |
| 2026-04-23 09:37 | 16.81563 | 75.06000 | 38879 ft | 514 kts | 122° |
| 2026-04-23 09:37 | 16.78250 | 75.12607 | 38879 ft | 513 kts | 122° |
| 2026-04-23 09:38 | 16.74934 | 75.19204 | 38878 ft | 513 kts | 122° |
| 2026-04-23 09:38 | 16.71618 | 75.25796 | 38878 ft | 513 kts | 122° |
| 2026-04-23 09:39 | 16.68322 | 75.32343 | 38878 ft | 513 kts | 122° |
| 2026-04-23 09:39 | 16.65000 | 75.38937 | 38889 ft | 513 kts | 122° |
| 2026-04-23 09:40 | 16.61678 | 75.45526 | 38884 ft | 513 kts | 122° |
| 2026-04-23 09:40 | 16.58439 | 75.52170 | 38875 ft | 515 kts | 120° |
| 2026-04-23 09:41 | 16.55382 | 75.58884 | 38875 ft | 516 kts | 120° |
| 2026-04-23 09:41 | 16.52302 | 75.65650 | 38883 ft | 516 kts | 120° |
| 2026-04-23 09:42 | 16.49196 | 75.72389 | 38883 ft | 516 kts | 120° |
| 2026-04-23 09:42 | 16.46068 | 75.79132 | 38874 ft | 516 kts | 120° |
| 2026-04-23 09:43 | 16.42942 | 75.85858 | 38880 ft | 516 kts | 120° |
| 2026-04-23 09:43 | 16.39812 | 75.92586 | 38879 ft | 516 kts | 120° |
| 2026-04-23 09:44 | 16.36865 | 75.98920 | 38878 ft | 516 kts | 120° |
| 2026-04-23 09:44 | 16.33722 | 76.05645 | 38877 ft | 516 kts | 120° |
| 2026-04-23 09:45 | 16.30576 | 76.12305 | 38867 ft | 515 kts | 120° |
| 2026-04-23 09:45 | 16.27410 | 76.19002 | 38866 ft | 515 kts | 120° |
| 2026-04-23 09:46 | 16.24249 | 76.25691 | 38849 ft | 515 kts | 120° |
| 2026-04-23 09:46 | 16.21622 | 76.31251 | 38867 ft | 514 kts | 120° |
| 2026-04-23 09:47 | 16.18464 | 76.37930 | 38862 ft | 514 kts | 120° |
| 2026-04-23 09:47 | 16.15307 | 76.44598 | 38862 ft | 513 kts | 120° |
| 2026-04-23 09:48 | 16.12146 | 76.51267 | 38854 ft | 513 kts | 120° |
| 2026-04-23 09:48 | 16.08989 | 76.57923 | 38856 ft | 513 kts | 120° |
| 2026-04-23 09:49 | 16.05832 | 76.64572 | 38845 ft | 513 kts | 120° |
| 2026-04-23 09:49 | 16.02668 | 76.71227 | 38842 ft | 513 kts | 120° |
| 2026-04-23 09:50 | 15.99506 | 76.77873 | 38842 ft | 513 kts | 120° |
| 2026-04-23 09:50 | 15.96344 | 76.84514 | 38840 ft | 513 kts | 120° |
| 2026-04-23 09:51 | 15.93199 | 76.91113 | 38820 ft | 511 kts | 120° |
| 2026-04-23 09:51 | 15.90045 | 76.97728 | 38821 ft | 510 kts | 120° |
| 2026-04-23 09:52 | 15.86896 | 77.04319 | 38823 ft | 509 kts | 120° |
| 2026-04-23 09:52 | 15.83917 | 77.10548 | 38825 ft | 509 kts | 120° |
| 2026-04-23 09:53 | 15.80764 | 77.17137 | 38809 ft | 509 kts | 120° |
| 2026-04-23 09:53 | 15.77628 | 77.23686 | 38808 ft | 509 kts | 120° |
| 2026-04-23 09:54 | 15.74481 | 77.30257 | 38813 ft | 507 kts | 120° |
| 2026-04-23 09:54 | 15.71339 | 77.36810 | 38814 ft | 507 kts | 120° |
| 2026-04-23 09:55 | 15.68215 | 77.43374 | 38808 ft | 507 kts | 120° |
| 2026-04-23 09:55 | 15.65096 | 77.49927 | 38808 ft | 507 kts | 120° |
| 2026-04-23 09:56 | 15.61970 | 77.56487 | 38816 ft | 506 kts | 120° |
| 2026-04-23 09:56 | 15.58849 | 77.63030 | 38816 ft | 506 kts | 120° |
| 2026-04-23 09:57 | 15.55724 | 77.69570 | 38809 ft | 506 kts | 120° |
| 2026-04-23 09:57 | 15.52595 | 77.76115 | 38805 ft | 506 kts | 120° |
| 2026-04-23 09:58 | 15.49465 | 77.82657 | 38805 ft | 506 kts | 120° |
| 2026-04-23 09:58 | 15.46350 | 77.89161 | 38801 ft | 506 kts | 120° |
| 2026-04-23 09:59 | 15.43216 | 77.95699 | 38806 ft | 506 kts | 120° |
| 2026-04-23 09:59 | 15.40080 | 78.02235 | 38810 ft | 506 kts | 120° |
| 2026-04-23 10:00 | 15.36944 | 78.08766 | 38811 ft | 506 kts | 120° |
| 2026-04-23 10:00 | 15.33793 | 78.15291 | 38791 ft | 506 kts | 121° |
| 2026-04-23 10:01 | 15.30608 | 78.21791 | 38786 ft | 505 kts | 121° |
| 2026-04-23 10:01 | 15.27422 | 78.28285 | 38758 ft | 505 kts | 121° |
| 2026-04-23 10:02 | 15.24241 | 78.34779 | 38761 ft | 505 kts | 120° |
| 2026-04-23 10:02 | 15.21063 | 78.41267 | 38758 ft | 505 kts | 120° |
| 2026-04-23 10:03 | 15.17884 | 78.47754 | 38749 ft | 505 kts | 121° |
| 2026-04-23 10:03 | 15.14700 | 78.54245 | 38749 ft | 505 kts | 121° |
| 2026-04-23 10:04 | 15.11530 | 78.60700 | 38749 ft | 505 kts | 121° |
| 2026-04-23 10:04 | 15.08342 | 78.67186 | 38751 ft | 505 kts | 121° |
| 2026-04-23 10:05 | 15.05155 | 78.73665 | 38742 ft | 505 kts | 121° |
| 2026-04-23 10:05 | 15.01968 | 78.80140 | 38743 ft | 505 kts | 121° |
| 2026-04-23 10:06 | 14.98774 | 78.86620 | 38744 ft | 506 kts | 121° |
| 2026-04-23 10:06 | 14.95579 | 78.93099 | 38744 ft | 505 kts | 121° |
| 2026-04-23 10:07 | 14.92406 | 78.99526 | 38732 ft | 505 kts | 121° |
| 2026-04-23 10:07 | 14.89213 | 79.05989 | 38726 ft | 505 kts | 121° |
| 2026-04-23 10:08 | 14.86010 | 79.12463 | 38734 ft | 506 kts | 121° |
| 2026-04-23 10:08 | 14.82803 | 79.18946 | 38731 ft | 506 kts | 121° |
| 2026-04-23 10:09 | 14.77993 | 79.28655 | 38724 ft | 506 kts | 121° |
| 2026-04-23 10:09 | 14.74786 | 79.35121 | 38725 ft | 506 kts | 121° |
| 2026-04-23 10:10 | 14.71569 | 79.41602 | 38727 ft | 506 kts | 121° |
| 2026-04-23 10:10 | 14.68376 | 79.48026 | 38715 ft | 506 kts | 121° |
| 2026-04-23 10:11 | 14.65166 | 79.54486 | 38724 ft | 505 kts | 121° |
| 2026-04-23 10:11 | 14.61958 | 79.60932 | 38723 ft | 504 kts | 121° |
| 2026-04-23 10:12 | 14.58744 | 79.67384 | 38725 ft | 504 kts | 121° |
| 2026-04-23 10:12 | 14.55533 | 79.73823 | 38732 ft | 504 kts | 121° |
| 2026-04-23 10:13 | 14.52319 | 79.80265 | 38723 ft | 504 kts | 121° |
| 2026-04-23 10:13 | 14.49104 | 79.86701 | 38733 ft | 505 kts | 121° |
| 2026-04-23 10:14 | 14.45879 | 79.93156 | 38743 ft | 506 kts | 121° |
| 2026-04-23 10:14 | 14.42653 | 79.99607 | 38743 ft | 506 kts | 121° |
| 2026-04-23 10:15 | 14.39427 | 80.06051 | 38753 ft | 506 kts | 121° |
| 2026-04-23 10:15 | 14.36218 | 80.12457 | 38745 ft | 505 kts | 120° |
| 2026-04-23 10:16 | 14.32995 | 80.18888 | 38758 ft | 504 kts | 120° |
| 2026-04-23 10:16 | 14.29768 | 80.25313 | 38758 ft | 505 kts | 120° |
| 2026-04-23 10:17 | 14.26535 | 80.31750 | 38765 ft | 505 kts | 120° |
| 2026-04-23 10:17 | 14.23302 | 80.38183 | 38764 ft | 505 kts | 120° |
| 2026-04-23 10:18 | 14.20062 | 80.44623 | 38764 ft | 505 kts | 120° |
| 2026-04-23 10:18 | 14.16825 | 80.51053 | 38769 ft | 505 kts | 120° |
| 2026-04-23 10:19 | 14.13607 | 80.57439 | 38767 ft | 506 kts | 120° |
| 2026-04-23 10:19 | 14.10359 | 80.63876 | 38772 ft | 507 kts | 120° |
| 2026-04-23 10:20 | 14.07105 | 80.70325 | 38769 ft | 507 kts | 120° |
| 2026-04-23 10:20 | 14.03849 | 80.76773 | 38769 ft | 507 kts | 120° |
| 2026-04-23 10:21 | 14.00595 | 80.83211 | 38771 ft | 506 kts | 120° |
| 2026-04-23 10:21 | 13.97402 | 80.89676 | 38771 ft | 506 kts | 119° |
| 2026-04-23 10:22 | 13.94267 | 80.96177 | 38776 ft | 507 kts | 119° |
| 2026-04-23 10:22 | 13.91123 | 81.02679 | 38776 ft | 508 kts | 119° |
| 2026-04-23 10:23 | 13.87960 | 81.09188 | 38779 ft | 508 kts | 119° |
| 2026-04-23 10:23 | 13.84792 | 81.15689 | 38779 ft | 508 kts | 119° |
| 2026-04-23 10:24 | 13.81649 | 81.22132 | 38782 ft | 508 kts | 119° |
| 2026-04-23 10:24 | 13.78475 | 81.28633 | 38776 ft | 508 kts | 119° |
| 2026-04-23 10:25 | 13.75300 | 81.35132 | 38782 ft | 509 kts | 119° |
| 2026-04-23 10:25 | 13.72118 | 81.41640 | 38782 ft | 509 kts | 119° |
| 2026-04-23 10:26 | 13.68942 | 81.48147 | 38781 ft | 508 kts | 118° |
| 2026-04-23 10:26 | 13.65777 | 81.54638 | 38783 ft | 507 kts | 119° |
| 2026-04-23 10:27 | 13.62609 | 81.61120 | 38784 ft | 507 kts | 119° |
| 2026-04-23 10:27 | 13.59441 | 81.67598 | 38782 ft | 507 kts | 118° |
| 2026-04-23 10:28 | 13.56271 | 81.74081 | 38788 ft | 507 kts | 118° |
| 2026-04-23 10:28 | 13.53119 | 81.80520 | 38787 ft | 507 kts | 118° |
| 2026-04-23 10:29 | 13.49945 | 81.86998 | 38790 ft | 507 kts | 118° |
| 2026-04-23 10:29 | 13.46770 | 81.93476 | 38790 ft | 507 kts | 118° |
| 2026-04-23 10:30 | 13.43593 | 81.99949 | 38790 ft | 507 kts | 118° |
| 2026-04-23 10:30 | 13.40414 | 82.06421 | 38790 ft | 507 kts | 118° |
| 2026-04-23 10:31 | 13.37238 | 82.12885 | 38787 ft | 507 kts | 118° |
| 2026-04-23 10:31 | 13.34058 | 82.19350 | 38793 ft | 507 kts | 118° |
| 2026-04-23 10:32 | 13.30898 | 82.25771 | 38791 ft | 507 kts | 118° |
| 2026-04-23 10:32 | 13.27713 | 82.32236 | 38790 ft | 507 kts | 118° |
| 2026-04-23 10:33 | 13.24533 | 82.38688 | 38793 ft | 507 kts | 118° |
| 2026-04-23 10:33 | 13.21341 | 82.45156 | 38793 ft | 507 kts | 118° |
| 2026-04-23 10:34 | 13.18166 | 82.51585 | 38793 ft | 508 kts | 118° |
| 2026-04-23 10:34 | 13.14963 | 82.58068 | 38793 ft | 508 kts | 118° |
| 2026-04-23 10:35 | 13.12285 | 82.63485 | 38796 ft | 508 kts | 118° |
| 2026-04-23 10:35 | 13.09106 | 82.69910 | 38796 ft | 508 kts | 118° |
| 2026-04-23 10:36 | 13.05903 | 82.76380 | 38793 ft | 508 kts | 118° |
| 2026-04-23 10:36 | 13.02696 | 82.82849 | 38790 ft | 508 kts | 118° |
| 2026-04-23 10:37 | 12.99582 | 82.89132 | 38796 ft | 507 kts | 118° |
| 2026-04-23 10:37 | 12.96542 | 82.95258 | 38796 ft | 507 kts | 118° |
| 2026-04-23 10:38 | 12.93352 | 83.01679 | 38797 ft | 507 kts | 118° |
| 2026-04-23 10:38 | 12.90262 | 83.07895 | 38797 ft | 507 kts | 118° |
| 2026-04-23 10:39 | 12.87106 | 83.14240 | 38797 ft | 507 kts | 118° |
| 2026-04-23 10:39 | 12.83898 | 83.20683 | 38798 ft | 507 kts | 118° |
| 2026-04-23 10:40 | 12.80716 | 83.27072 | 38800 ft | 507 kts | 118° |
| 2026-04-23 10:40 | 12.77511 | 83.33501 | 38804 ft | 507 kts | 118° |
| 2026-04-23 10:41 | 12.74300 | 83.39938 | 38798 ft | 507 kts | 118° |
| 2026-04-23 10:41 | 12.71090 | 83.46368 | 38798 ft | 507 kts | 118° |
| 2026-04-23 10:42 | 12.67876 | 83.52802 | 38798 ft | 506 kts | 118° |
| 2026-04-23 10:42 | 12.64691 | 83.59214 | 38799 ft | 505 kts | 117° |
| 2026-04-23 10:43 | 12.61591 | 83.65677 | 38798 ft | 506 kts | 117° |
| 2026-04-23 10:43 | 12.58522 | 83.72117 | 38799 ft | 506 kts | 117° |
| 2026-04-23 10:44 | 12.55421 | 83.78584 | 38799 ft | 506 kts | 117° |
| 2026-04-23 10:44 | 12.52315 | 83.85036 | 38799 ft | 506 kts | 117° |
| 2026-04-23 10:45 | 12.49202 | 83.91491 | 38799 ft | 506 kts | 117° |
| 2026-04-23 10:45 | 12.46085 | 83.97951 | 38802 ft | 506 kts | 117° |
| 2026-04-23 10:46 | 12.42967 | 84.04411 | 38802 ft | 506 kts | 117° |
| 2026-04-23 10:46 | 12.39846 | 84.10873 | 38801 ft | 506 kts | 117° |
| 2026-04-23 10:47 | 12.36725 | 84.17330 | 38801 ft | 506 kts | 117° |
| 2026-04-23 10:47 | 12.33602 | 84.23785 | 38801 ft | 506 kts | 117° |
| 2026-04-23 10:48 | 12.30487 | 84.30218 | 38801 ft | 504 kts | 116° |
| 2026-04-23 10:48 | 12.27377 | 84.36634 | 38801 ft | 504 kts | 116° |
| 2026-04-23 10:49 | 12.24260 | 84.43063 | 38801 ft | 504 kts | 116° |
| 2026-04-23 10:49 | 12.21163 | 84.49447 | 38801 ft | 504 kts | 116° |
| 2026-04-23 10:50 | 12.18044 | 84.55871 | 38804 ft | 504 kts | 116° |
| 2026-04-23 10:50 | 12.14925 | 84.62292 | 38804 ft | 504 kts | 116° |
| 2026-04-23 10:51 | 12.11801 | 84.68715 | 38800 ft | 504 kts | 116° |
| 2026-04-23 10:51 | 12.08677 | 84.75136 | 38801 ft | 505 kts | 116° |
| 2026-04-23 10:52 | 12.05550 | 84.81560 | 38801 ft | 505 kts | 116° |
| 2026-04-23 10:52 | 12.02420 | 84.87982 | 38801 ft | 505 kts | 116° |
| 2026-04-23 10:53 | 11.99290 | 84.94403 | 38804 ft | 505 kts | 116° |
| 2026-04-23 10:53 | 11.96157 | 85.00825 | 38804 ft | 504 kts | 116° |
| 2026-04-23 10:54 | 11.93043 | 85.07204 | 38801 ft | 504 kts | 116° |
| 2026-04-23 10:54 | 11.89911 | 85.13615 | 38801 ft | 504 kts | 116° |
| 2026-04-23 10:55 | 11.86782 | 85.20013 | 38801 ft | 504 kts | 116° |
| 2026-04-23 10:55 | 11.83648 | 85.26416 | 38802 ft | 504 kts | 116° |
| 2026-04-23 10:56 | 11.80511 | 85.32823 | 38801 ft | 504 kts | 116° |
| 2026-04-23 10:56 | 11.77372 | 85.39231 | 38801 ft | 504 kts | 116° |
| 2026-04-23 10:57 | 11.74233 | 85.45631 | 38801 ft | 504 kts | 116° |
| 2026-04-23 10:57 | 11.71094 | 85.52031 | 38801 ft | 504 kts | 116° |
| 2026-04-23 10:58 | 11.67975 | 85.58384 | 38801 ft | 504 kts | 116° |
| 2026-04-23 10:58 | 11.64830 | 85.64786 | 38801 ft | 504 kts | 116° |
| 2026-04-23 10:59 | 11.61691 | 85.71171 | 38802 ft | 504 kts | 116° |
| 2026-04-23 10:59 | 11.58547 | 85.77562 | 38801 ft | 504 kts | 116° |
| 2026-04-23 11:00 | 11.55399 | 85.83956 | 38804 ft | 504 kts | 116° |
| 2026-04-23 11:00 | 11.52250 | 85.90347 | 38804 ft | 504 kts | 116° |
| 2026-04-23 11:01 | 11.49102 | 85.96735 | 38801 ft | 504 kts | 116° |
| 2026-04-23 11:01 | 11.45954 | 86.03117 | 38802 ft | 504 kts | 116° |
| 2026-04-23 11:02 | 11.42803 | 86.09501 | 38801 ft | 504 kts | 116° |
| 2026-04-23 11:02 | 11.39653 | 86.15879 | 38801 ft | 504 kts | 116° |
| 2026-04-23 11:03 | 11.36515 | 86.22229 | 38801 ft | 504 kts | 116° |
| 2026-04-23 11:03 | 11.33361 | 86.28606 | 38801 ft | 504 kts | 116° |
| 2026-04-23 11:04 | 11.30205 | 86.34984 | 38801 ft | 504 kts | 116° |
| 2026-04-23 11:04 | 11.27049 | 86.41356 | 38801 ft | 503 kts | 116° |
| 2026-04-23 11:05 | 11.23898 | 86.47715 | 38801 ft | 503 kts | 116° |
| 2026-04-23 11:05 | 11.20750 | 86.54064 | 38801 ft | 502 kts | 116° |
| 2026-04-23 11:06 | 11.16021 | 86.63593 | 38801 ft | 502 kts | 116° |
| 2026-04-23 11:07 | 11.12871 | 86.69935 | 38802 ft | 502 kts | 116° |
| 2026-04-23 11:07 | 11.09719 | 86.76278 | 38802 ft | 502 kts | 116° |
| 2026-04-23 11:08 | 11.06569 | 86.82612 | 38798 ft | 502 kts | 116° |
| 2026-04-23 11:08 | 11.03435 | 86.88911 | 38799 ft | 502 kts | 116° |
| 2026-04-23 11:09 | 11.00279 | 86.95249 | 38803 ft | 502 kts | 116° |
| 2026-04-23 11:09 | 10.97124 | 87.01582 | 38802 ft | 501 kts | 116° |
| 2026-04-23 11:10 | 10.93974 | 87.07901 | 38805 ft | 501 kts | 116° |
| 2026-04-23 11:10 | 10.90819 | 87.14224 | 38804 ft | 500 kts | 116° |
| 2026-04-23 11:11 | 10.87667 | 87.20541 | 38804 ft | 500 kts | 116° |
| 2026-04-23 11:11 | 10.84513 | 87.26855 | 38804 ft | 500 kts | 116° |
| 2026-04-23 11:12 | 10.81361 | 87.33162 | 38801 ft | 500 kts | 116° |
| 2026-04-23 11:12 | 10.78224 | 87.39433 | 38804 ft | 500 kts | 116° |
| 2026-04-23 11:13 | 10.75073 | 87.45732 | 38804 ft | 500 kts | 116° |
| 2026-04-23 11:13 | 10.71915 | 87.52040 | 38804 ft | 500 kts | 116° |
| 2026-04-23 11:14 | 10.68756 | 87.58345 | 38806 ft | 500 kts | 116° |
| 2026-04-23 11:14 | 10.65598 | 87.64643 | 38806 ft | 500 kts | 116° |
| 2026-04-23 11:15 | 10.62442 | 87.70936 | 38806 ft | 500 kts | 116° |
| 2026-04-23 11:15 | 10.59306 | 87.77184 | 38809 ft | 499 kts | 116° |
| 2026-04-23 11:16 | 10.56148 | 87.83473 | 38810 ft | 499 kts | 116° |
| 2026-04-23 11:16 | 10.52990 | 87.89757 | 38810 ft | 499 kts | 116° |
| 2026-04-23 11:17 | 10.49831 | 87.96039 | 38813 ft | 499 kts | 116° |
| 2026-04-23 11:17 | 10.46674 | 88.02315 | 38819 ft | 499 kts | 116° |
| 2026-04-23 11:18 | 10.43515 | 88.08590 | 38806 ft | 499 kts | 116° |
| 2026-04-23 11:18 | 10.40358 | 88.14859 | 38805 ft | 498 kts | 116° |
| 2026-04-23 11:19 | 10.37204 | 88.21117 | 38806 ft | 498 kts | 116° |
| 2026-04-23 11:19 | 10.34046 | 88.27379 | 38806 ft | 498 kts | 116° |
| 2026-04-23 11:20 | 10.30885 | 88.33643 | 38807 ft | 498 kts | 116° |
| 2026-04-23 11:20 | 10.27731 | 88.39890 | 38805 ft | 498 kts | 116° |
| 2026-04-23 11:21 | 10.24591 | 88.46106 | 38805 ft | 498 kts | 116° |
| 2026-04-23 11:21 | 10.21428 | 88.52360 | 38843 ft | 497 kts | 116° |
| 2026-04-23 11:21 | 10.19864 | 88.55486 | 38956 ft | 497 kts | 115° |
| 2026-04-23 11:22 | 10.18375 | 88.58651 | 39078 ft | 496 kts | 113° |
| 2026-04-23 11:22 | 10.15503 | 88.65045 | 39242 ft | 497 kts | 113° |
| 2026-04-23 11:23 | 10.12635 | 88.71423 | 39424 ft | 496 kts | 113° |
| 2026-04-23 11:23 | 10.10226 | 88.76707 | 39566 ft | 496 kts | 113° |
| 2026-04-23 11:24 | 10.07309 | 88.83060 | 39722 ft | 496 kts | 113° |
| 2026-04-23 11:24 | 10.04394 | 88.89396 | 39876 ft | 496 kts | 113° |
| 2026-04-23 11:25 | 10.01480 | 88.95730 | 40006 ft | 495 kts | 113° |
| 2026-04-23 11:25 | 9.98562 | 89.02073 | 40162 ft | 495 kts | 113° |
| 2026-04-23 11:26 | 9.95671 | 89.08354 | 40292 ft | 495 kts | 113° |
| 2026-04-23 11:26 | 9.92758 | 89.14678 | 40423 ft | 495 kts | 113° |
| 2026-04-23 11:27 | 9.89846 | 89.20998 | 40547 ft | 494 kts | 113° |
| 2026-04-23 11:27 | 9.86933 | 89.27315 | 40669 ft | 493 kts | 112° |
| 2026-04-23 11:28 | 9.84025 | 89.33619 | 40799 ft | 493 kts | 112° |
| 2026-04-23 11:28 | 9.81121 | 89.39912 | 40813 ft | 492 kts | 112° |
| 2026-04-23 11:29 | 9.78220 | 89.46195 | 40817 ft | 491 kts | 112° |
| 2026-04-23 11:29 | 9.75339 | 89.52432 | 40817 ft | 491 kts | 112° |
| 2026-04-23 11:30 | 9.72441 | 89.58702 | 40813 ft | 491 kts | 112° |
| 2026-04-23 11:30 | 9.69541 | 89.64974 | 40817 ft | 491 kts | 112° |
| 2026-04-23 11:31 | 9.66639 | 89.71247 | 40811 ft | 491 kts | 112° |
| 2026-04-23 11:31 | 9.63736 | 89.77521 | 40810 ft | 491 kts | 112° |
| 2026-04-23 11:32 | 9.60832 | 89.83789 | 40814 ft | 491 kts | 112° |
| 2026-04-23 11:32 | 9.57929 | 89.90055 | 40809 ft | 491 kts | 112° |
| 2026-04-23 11:33 | 9.55042 | 89.96282 | 40807 ft | 491 kts | 112° |
| 2026-04-23 11:33 | 9.52136 | 90.02544 | 40814 ft | 491 kts | 112° |
| 2026-04-23 11:34 | 9.49229 | 90.08809 | 40815 ft | 491 kts | 112° |
| 2026-04-23 11:34 | 9.46323 | 90.15065 | 40816 ft | 491 kts | 112° |
| 2026-04-23 11:35 | 9.43418 | 90.21317 | 40805 ft | 490 kts | 112° |
| 2026-04-23 11:35 | 9.40518 | 90.27556 | 40812 ft | 489 kts | 112° |
| 2026-04-23 11:36 | 9.37615 | 90.33795 | 40816 ft | 490 kts | 112° |
| 2026-04-23 11:36 | 9.34729 | 90.39996 | 40814 ft | 489 kts | 112° |
| 2026-04-23 11:37 | 9.31830 | 90.46223 | 40811 ft | 488 kts | 112° |
| 2026-04-23 11:37 | 9.28935 | 90.52436 | 40816 ft | 488 kts | 112° |
| 2026-04-23 11:38 | 9.26040 | 90.58644 | 40808 ft | 488 kts | 112° |
| 2026-04-23 11:38 | 9.23144 | 90.64854 | 40812 ft | 488 kts | 112° |
| 2026-04-23 11:39 | 9.20248 | 90.71058 | 40815 ft | 488 kts | 111° |
| 2026-04-23 11:39 | 9.17347 | 90.77272 | 40806 ft | 488 kts | 111° |
| 2026-04-23 11:40 | 9.14470 | 90.83430 | 40805 ft | 486 kts | 111° |
| 2026-04-23 11:40 | 9.11583 | 90.89607 | 40815 ft | 486 kts | 111° |
| 2026-04-23 11:41 | 9.08693 | 90.95785 | 40809 ft | 486 kts | 111° |
| 2026-04-23 11:41 | 9.05801 | 91.01965 | 40811 ft | 486 kts | 111° |
| 2026-04-23 11:42 | 9.02905 | 91.08152 | 40808 ft | 485 kts | 111° |
| 2026-04-23 11:42 | 9.00013 | 91.14325 | 40815 ft | 485 kts | 111° |
| 2026-04-23 11:43 | 8.97123 | 91.20491 | 40814 ft | 484 kts | 111° |
| 2026-04-23 11:43 | 8.94256 | 91.26607 | 40815 ft | 483 kts | 111° |
| 2026-04-23 11:44 | 8.91371 | 91.32756 | 40810 ft | 483 kts | 111° |
| 2026-04-23 11:44 | 8.88565 | 91.38734 | 40820 ft | 483 kts | 111° |
| 2026-04-23 11:45 | 8.85806 | 91.44611 | 40816 ft | 483 kts | 111° |
| 2026-04-23 11:45 | 8.82922 | 91.50751 | 40821 ft | 483 kts | 111° |
| 2026-04-23 11:46 | 8.80038 | 91.56887 | 40812 ft | 482 kts | 111° |
| 2026-04-23 11:46 | 8.77167 | 91.62992 | 40812 ft | 480 kts | 111° |
| 2026-04-23 11:47 | 8.74318 | 91.69044 | 40821 ft | 480 kts | 111° |
| 2026-04-23 11:47 | 8.71448 | 91.75141 | 40821 ft | 480 kts | 111° |
| 2026-04-23 11:48 | 8.68583 | 91.81223 | 40821 ft | 479 kts | 111° |
| 2026-04-23 11:48 | 8.65713 | 91.87314 | 40816 ft | 479 kts | 111° |
| 2026-04-23 11:49 | 8.62997 | 91.93076 | 40823 ft | 479 kts | 111° |
| 2026-04-23 11:49 | 8.60147 | 91.99120 | 40816 ft | 478 kts | 111° |
| 2026-04-23 11:50 | 8.57346 | 92.05214 | 40818 ft | 477 kts | 110° |
| 2026-04-23 11:50 | 8.54664 | 92.11354 | 40816 ft | 478 kts | 109° |
| 2026-04-23 11:51 | 8.51973 | 92.17507 | 40814 ft | 478 kts | 110° |
| 2026-04-23 11:51 | 8.49264 | 92.23645 | 40818 ft | 478 kts | 110° |
| 2026-04-23 11:52 | 8.46545 | 92.29774 | 40813 ft | 478 kts | 110° |
| 2026-04-23 11:52 | 8.43826 | 92.35900 | 40814 ft | 478 kts | 110° |
| 2026-04-23 11:53 | 8.41106 | 92.42025 | 40806 ft | 478 kts | 110° |
| 2026-04-23 11:53 | 8.38401 | 92.48113 | 40810 ft | 478 kts | 110° |
| 2026-04-23 11:54 | 8.35676 | 92.54246 | 40817 ft | 478 kts | 110° |
| 2026-04-23 11:54 | 8.32950 | 92.60378 | 40816 ft | 478 kts | 110° |
| 2026-04-23 11:55 | 8.30224 | 92.66506 | 40816 ft | 479 kts | 110° |
| 2026-04-23 11:55 | 8.27512 | 92.72602 | 40819 ft | 478 kts | 110° |
| 2026-04-23 11:56 | 8.24783 | 92.78730 | 40808 ft | 478 kts | 110° |
| 2026-04-23 11:56 | 8.22056 | 92.84852 | 40815 ft | 478 kts | 110° |
| 2026-04-23 11:57 | 8.19327 | 92.90976 | 40818 ft | 478 kts | 110° |
| 2026-04-23 11:57 | 8.16599 | 92.97094 | 40816 ft | 478 kts | 110° |
| 2026-04-23 11:58 | 8.13872 | 93.03208 | 40819 ft | 478 kts | 110° |
| 2026-04-23 11:58 | 8.11141 | 93.09328 | 40815 ft | 478 kts | 110° |
| 2026-04-23 11:59 | 8.08411 | 93.15442 | 40809 ft | 477 kts | 110° |
| 2026-04-23 11:59 | 8.05684 | 93.21547 | 40814 ft | 477 kts | 110° |
| 2026-04-23 12:00 | 8.02973 | 93.27612 | 40819 ft | 477 kts | 110° |
| 2026-04-23 12:00 | 8.00236 | 93.33733 | 40821 ft | 477 kts | 110° |
| 2026-04-23 12:01 | 7.97508 | 93.39832 | 40820 ft | 477 kts | 110° |
| 2026-04-23 12:01 | 7.94773 | 93.45945 | 40813 ft | 477 kts | 110° |
| 2026-04-23 12:02 | 7.92044 | 93.52046 | 40818 ft | 477 kts | 110° |
| 2026-04-23 12:02 | 7.89324 | 93.58169 | 40818 ft | 477 kts | 110° |
| 2026-04-23 12:03 | 7.86614 | 93.64280 | 40809 ft | 477 kts | 110° |
| 2026-04-23 12:03 | 7.83899 | 93.70397 | 40818 ft | 477 kts | 110° |
| 2026-04-23 12:04 | 7.81185 | 93.76502 | 40819 ft | 477 kts | 110° |
| 2026-04-23 12:04 | 7.78484 | 93.82574 | 40816 ft | 478 kts | 110° |
| 2026-04-23 12:05 | 7.75760 | 93.88693 | 40816 ft | 478 kts | 110° |
| 2026-04-23 12:05 | 7.73035 | 93.94816 | 40815 ft | 479 kts | 110° |
| 2026-04-23 12:06 | 7.70306 | 94.00944 | 40818 ft | 478 kts | 110° |
| 2026-04-23 12:06 | 7.66285 | 94.09968 | 40821 ft | 478 kts | 110° |
| 2026-04-23 12:07 | 7.63925 | 94.15261 | 40811 ft | 479 kts | 110° |
| 2026-04-23 12:07 | 7.61329 | 94.21080 | 40807 ft | 479 kts | 110° |
| 2026-04-23 12:08 | 7.58594 | 94.27209 | 40823 ft | 480 kts | 110° |
| 2026-04-23 12:08 | 7.55857 | 94.33341 | 40817 ft | 480 kts | 110° |
| 2026-04-23 12:09 | 7.53121 | 94.39470 | 40812 ft | 480 kts | 110° |
| 2026-04-23 12:09 | 7.50337 | 94.45584 | 40815 ft | 480 kts | 112° |
| 2026-04-23 12:10 | 7.47381 | 94.51623 | 40811 ft | 480 kts | 112° |
| 2026-04-23 12:10 | 7.44408 | 94.57641 | 40816 ft | 480 kts | 112° |
| 2026-04-23 12:11 | 7.41477 | 94.63635 | 40820 ft | 480 kts | 112° |
| 2026-04-23 12:11 | 7.38541 | 94.69675 | 40820 ft | 480 kts | 112° |
| 2026-04-23 12:12 | 7.35603 | 94.75723 | 40817 ft | 480 kts | 112° |
| 2026-04-23 12:12 | 7.32665 | 94.81769 | 40818 ft | 480 kts | 112° |
| 2026-04-23 12:13 | 7.29725 | 94.87813 | 40817 ft | 480 kts | 112° |
| 2026-04-23 12:13 | 7.26787 | 94.93849 | 40816 ft | 480 kts | 112° |
| 2026-04-23 12:14 | 7.24338 | 94.98879 | 40816 ft | 481 kts | 112° |
| 2026-04-23 12:14 | 7.21390 | 95.04931 | 40815 ft | 481 kts | 112° |
| 2026-04-23 12:15 | 7.18439 | 95.10987 | 40816 ft | 482 kts | 112° |
| 2026-04-23 12:15 | 7.15486 | 95.17045 | 40812 ft | 481 kts | 112° |
| 2026-04-23 12:16 | 7.12536 | 95.23095 | 40818 ft | 481 kts | 112° |
| 2026-04-23 12:16 | 7.09584 | 95.29145 | 40811 ft | 481 kts | 112° |
| 2026-04-23 12:17 | 7.06648 | 95.35162 | 40819 ft | 481 kts | 112° |
| 2026-04-23 12:17 | 7.03689 | 95.41222 | 40818 ft | 482 kts | 112° |
| 2026-04-23 12:18 | 7.01281 | 95.46154 | 40820 ft | 483 kts | 112° |
| 2026-04-23 12:18 | 6.98722 | 95.51394 | 40818 ft | 483 kts | 112° |
| 2026-04-23 12:19 | 6.95938 | 95.57090 | 40815 ft | 483 kts | 112° |
| 2026-04-23 12:19 | 6.92971 | 95.63159 | 40821 ft | 483 kts | 112° |
| 2026-04-23 12:20 | 6.90008 | 95.69216 | 40821 ft | 483 kts | 112° |
| 2026-04-23 12:20 | 6.87038 | 95.75286 | 40812 ft | 484 kts | 112° |
| 2026-04-23 12:21 | 6.84071 | 95.81349 | 40819 ft | 486 kts | 112° |
| 2026-04-23 12:21 | 6.81082 | 95.87454 | 40821 ft | 486 kts | 112° |
| 2026-04-23 12:22 | 6.78094 | 95.93552 | 40819 ft | 485 kts | 112° |
| 2026-04-23 12:22 | 6.75111 | 95.99640 | 40819 ft | 485 kts | 112° |
| 2026-04-23 12:23 | 6.72131 | 96.05722 | 40820 ft | 485 kts | 112° |
| 2026-04-23 12:23 | 6.69148 | 96.11809 | 40824 ft | 485 kts | 112° |
| 2026-04-23 12:24 | 6.66168 | 96.17886 | 40820 ft | 484 kts | 112° |
| 2026-04-23 12:24 | 6.63187 | 96.23964 | 40818 ft | 484 kts | 112° |
| 2026-04-23 12:25 | 6.60205 | 96.30040 | 40823 ft | 484 kts | 112° |
| 2026-04-23 12:25 | 6.57224 | 96.36113 | 40818 ft | 484 kts | 112° |
| 2026-04-23 12:26 | 6.54239 | 96.42192 | 40826 ft | 484 kts | 112° |
| 2026-04-23 12:26 | 6.51300 | 96.48281 | 40837 ft | 483 kts | 109° |
| 2026-04-23 12:27 | 6.49158 | 96.54648 | 40821 ft | 480 kts | 103° |
| 2026-04-23 12:27 | 6.47258 | 96.61108 | 40828 ft | 483 kts | 102° |
| 2026-04-23 12:28 | 6.45387 | 96.67589 | 40826 ft | 483 kts | 102° |
| 2026-04-23 12:28 | 6.43512 | 96.74032 | 40822 ft | 483 kts | 102° |
| 2026-04-23 12:29 | 6.41616 | 96.80506 | 40813 ft | 483 kts | 103° |
| 2026-04-23 12:29 | 6.39713 | 96.86986 | 40823 ft | 483 kts | 103° |
| 2026-04-23 12:30 | 6.37805 | 96.93480 | 40818 ft | 484 kts | 103° |
| 2026-04-23 12:30 | 6.35900 | 96.99966 | 40817 ft | 484 kts | 103° |
| 2026-04-23 12:31 | 6.33989 | 97.06468 | 40811 ft | 484 kts | 103° |
| 2026-04-23 12:31 | 6.32083 | 97.12950 | 40822 ft | 484 kts | 103° |
| 2026-04-23 12:32 | 6.30173 | 97.19442 | 40814 ft | 484 kts | 103° |
| 2026-04-23 12:32 | 6.28262 | 97.25936 | 40824 ft | 484 kts | 103° |
| 2026-04-23 12:33 | 6.26350 | 97.32427 | 40827 ft | 484 kts | 103° |
| 2026-04-23 12:33 | 6.24437 | 97.38921 | 40825 ft | 484 kts | 103° |
| 2026-04-23 12:34 | 6.22526 | 97.45407 | 40822 ft | 484 kts | 103° |
| 2026-04-23 12:34 | 6.20626 | 97.51850 | 40823 ft | 484 kts | 103° |
| 2026-04-23 12:35 | 6.18253 | 97.58181 | 40827 ft | 486 kts | 115° |
| 2026-04-23 12:35 | 6.14338 | 97.63716 | 40828 ft | 487 kts | 126° |
| 2026-04-23 12:36 | 6.09946 | 97.68881 | 40816 ft | 486 kts | 127° |
| 2026-04-23 12:36 | 6.05490 | 97.73989 | 40822 ft | 485 kts | 128° |
| 2026-04-23 12:37 | 6.01046 | 97.79104 | 40825 ft | 485 kts | 128° |
| 2026-04-23 12:37 | 5.96630 | 97.84215 | 40821 ft | 483 kts | 128° |
| 2026-04-23 12:38 | 5.92228 | 97.89316 | 40825 ft | 484 kts | 127° |
| 2026-04-23 12:38 | 5.87816 | 97.94429 | 40824 ft | 484 kts | 127° |
| 2026-04-23 12:39 | 5.83438 | 97.99502 | 40825 ft | 484 kts | 128° |
| 2026-04-23 12:39 | 5.79021 | 98.04617 | 40821 ft | 484 kts | 128° |
| 2026-04-23 12:40 | 5.74604 | 98.09729 | 40824 ft | 485 kts | 128° |
| 2026-04-23 12:40 | 5.70183 | 98.14844 | 40825 ft | 484 kts | 128° |
| 2026-04-23 12:41 | 5.65770 | 98.19949 | 40820 ft | 484 kts | 128° |
| 2026-04-23 12:41 | 5.61352 | 98.25060 | 40821 ft | 484 kts | 128° |
| 2026-04-23 12:42 | 5.56932 | 98.30171 | 40825 ft | 484 kts | 128° |
| 2026-04-23 12:42 | 5.52519 | 98.35273 | 40823 ft | 484 kts | 128° |
| 2026-04-23 12:43 | 5.48100 | 98.40379 | 40825 ft | 485 kts | 128° |
| 2026-04-23 12:43 | 5.43674 | 98.45494 | 40819 ft | 485 kts | 128° |
| 2026-04-23 12:44 | 5.39258 | 98.50596 | 40824 ft | 484 kts | 128° |
| 2026-04-23 12:44 | 5.34862 | 98.55674 | 40819 ft | 485 kts | 128° |
| 2026-04-23 12:45 | 5.30431 | 98.60789 | 40825 ft | 485 kts | 128° |
| 2026-04-23 12:45 | 5.26316 | 98.65541 | 40826 ft | 484 kts | 128° |
| 2026-04-23 12:46 | 5.21900 | 98.70638 | 40826 ft | 484 kts | 128° |
| 2026-04-23 12:46 | 5.17504 | 98.75709 | 40828 ft | 484 kts | 128° |
| 2026-04-23 12:47 | 5.13091 | 98.80800 | 40825 ft | 484 kts | 128° |
| 2026-04-23 12:47 | 5.08672 | 98.85897 | 40822 ft | 483 kts | 128° |
| 2026-04-23 12:48 | 5.04259 | 98.90985 | 40824 ft | 484 kts | 128° |
| 2026-04-23 12:48 | 4.99843 | 98.96076 | 40825 ft | 484 kts | 128° |
| 2026-04-23 12:49 | 4.95427 | 99.01166 | 40825 ft | 484 kts | 128° |
| 2026-04-23 12:49 | 4.91010 | 99.06256 | 40822 ft | 484 kts | 128° |
| 2026-04-23 12:50 | 4.86592 | 99.11346 | 40824 ft | 483 kts | 128° |
| 2026-04-23 12:50 | 4.82183 | 99.16424 | 40824 ft | 483 kts | 128° |
| 2026-04-23 12:51 | 4.77799 | 99.21473 | 40828 ft | 483 kts | 128° |
| 2026-04-23 12:51 | 4.73394 | 99.26544 | 40825 ft | 483 kts | 128° |
| 2026-04-23 12:52 | 4.68983 | 99.31621 | 40824 ft | 483 kts | 128° |
| 2026-04-23 12:52 | 4.64573 | 99.36697 | 40824 ft | 483 kts | 128° |
| 2026-04-23 12:53 | 4.60155 | 99.41780 | 40819 ft | 483 kts | 128° |
| 2026-04-23 12:53 | 4.55746 | 99.46852 | 40811 ft | 482 kts | 128° |
| 2026-04-23 12:54 | 4.51362 | 99.51896 | 40824 ft | 482 kts | 128° |
| 2026-04-23 12:54 | 4.46868 | 99.56892 | 40825 ft | 483 kts | 131° |
| 2026-04-23 12:55 | 4.42127 | 99.61655 | 40824 ft | 482 kts | 132° |
| 2026-04-23 12:55 | 4.37379 | 99.66390 | 40832 ft | 481 kts | 131° |
| 2026-04-23 12:56 | 4.32668 | 99.71163 | 40825 ft | 481 kts | 131° |
| 2026-04-23 12:56 | 4.27978 | 99.75956 | 40827 ft | 481 kts | 131° |
| 2026-04-23 12:57 | 4.23297 | 99.80745 | 40825 ft | 481 kts | 131° |
| 2026-04-23 12:57 | 4.18610 | 99.85537 | 40825 ft | 481 kts | 131° |
| 2026-04-23 12:58 | 4.13920 | 99.90328 | 40823 ft | 481 kts | 131° |
| 2026-04-23 12:58 | 4.09233 | 99.95116 | 40826 ft | 482 kts | 131° |
| 2026-04-23 12:59 | 4.04535 | 99.99913 | 40820 ft | 482 kts | 131° |
| 2026-04-23 12:59 | 3.99849 | 100.04698 | 40820 ft | 482 kts | 131° |
| 2026-04-23 13:00 | 3.95157 | 100.09487 | 40825 ft | 481 kts | 131° |
| 2026-04-23 13:00 | 3.90493 | 100.14248 | 40821 ft | 481 kts | 131° |
| 2026-04-23 13:01 | 3.85807 | 100.19030 | 40819 ft | 481 kts | 131° |
| 2026-04-23 13:01 | 3.81111 | 100.23821 | 40829 ft | 482 kts | 131° |
| 2026-04-23 13:02 | 3.77178 | 100.27834 | 40818 ft | 482 kts | 131° |
| 2026-04-23 13:02 | 3.72480 | 100.32626 | 40819 ft | 481 kts | 131° |
| 2026-04-23 13:03 | 3.67820 | 100.37379 | 40819 ft | 481 kts | 131° |
| 2026-04-23 13:03 | 3.63128 | 100.42163 | 40815 ft | 481 kts | 131° |
| 2026-04-23 13:04 | 3.58438 | 100.46945 | 40818 ft | 481 kts | 131° |
| 2026-04-23 13:04 | 3.53753 | 100.51721 | 40818 ft | 481 kts | 131° |
| 2026-04-23 13:05 | 3.49280 | 100.56680 | 40817 ft | 478 kts | 125° |
| 2026-04-23 13:05 | 3.45223 | 100.61971 | 40816 ft | 480 kts | 123° |
| 2026-04-23 13:06 | 3.39211 | 100.70013 | 40820 ft | 481 kts | 123° |
| 2026-04-23 13:07 | 3.35193 | 100.75377 | 40817 ft | 481 kts | 123° |
| 2026-04-23 13:07 | 3.31201 | 100.80692 | 40811 ft | 480 kts | 123° |
| 2026-04-23 13:08 | 3.27183 | 100.86035 | 40820 ft | 480 kts | 123° |
| 2026-04-23 13:08 | 3.23167 | 100.91375 | 40818 ft | 480 kts | 123° |
| 2026-04-23 13:09 | 3.19160 | 100.96708 | 40159 ft | 476 kts | 123° |
| 2026-04-23 13:09 | 3.17169 | 100.99361 | 39314 ft | 479 kts | 123° |
| 2026-04-23 13:09 | 3.15165 | 101.02034 | 38510 ft | 481 kts | 123° |
| 2026-04-23 13:09 | 3.13156 | 101.04718 | 37585 ft | 483 kts | 123° |
| 2026-04-23 13:10 | 3.11132 | 101.07426 | 36688 ft | 485 kts | 123° |
| 2026-04-23 13:10 | 3.09110 | 101.10133 | 35787 ft | 487 kts | 123° |
| 2026-04-23 13:10 | 3.07082 | 101.12853 | 34858 ft | 489 kts | 123° |
| 2026-04-23 13:10 | 3.05034 | 101.15595 | 33948 ft | 492 kts | 124° |
| 2026-04-23 13:11 | 3.02975 | 101.18340 | 32905 ft | 495 kts | 124° |
| 2026-04-23 13:11 | 3.00997 | 101.20967 | 31824 ft | 500 kts | 124° |
| 2026-04-23 13:11 | 2.99003 | 101.23595 | 30903 ft | 502 kts | 125° |
| 2026-04-23 13:11 | 2.96878 | 101.26382 | 30264 ft | 504 kts | 125° |
| 2026-04-23 13:12 | 2.94740 | 101.29188 | 29930 ft | 508 kts | 125° |
| 2026-04-23 13:12 | 2.92620 | 101.31974 | 29813 ft | 510 kts | 125° |
| 2026-04-23 13:12 | 2.90471 | 101.34812 | 29811 ft | 511 kts | 125° |
| 2026-04-23 13:13 | 2.86488 | 101.40083 | 29815 ft | 511 kts | 125° |
| 2026-04-23 13:13 | 2.82208 | 101.45759 | 29806 ft | 511 kts | 125° |
| 2026-04-23 13:14 | 2.77929 | 101.51438 | 29805 ft | 511 kts | 125° |
| 2026-04-23 13:14 | 2.73652 | 101.57114 | 29800 ft | 511 kts | 125° |
| 2026-04-23 13:15 | 2.69371 | 101.62792 | 29802 ft | 511 kts | 125° |
| 2026-04-23 13:15 | 2.65088 | 101.68478 | 29797 ft | 511 kts | 125° |
| 2026-04-23 13:16 | 2.60809 | 101.74159 | 29803 ft | 511 kts | 125° |
| 2026-04-23 13:16 | 2.56537 | 101.79822 | 29803 ft | 510 kts | 125° |
| 2026-04-23 13:17 | 2.52268 | 101.85489 | 29808 ft | 510 kts | 125° |
| 2026-04-23 13:17 | 2.48026 | 101.91126 | 29816 ft | 510 kts | 125° |
| 2026-04-23 13:18 | 2.43826 | 101.96700 | 29778 ft | 513 kts | 125° |
| 2026-04-23 13:18 | 2.39488 | 102.02449 | 29826 ft | 518 kts | 125° |
| 2026-04-23 13:19 | 2.35172 | 102.08167 | 29852 ft | 513 kts | 125° |
| 2026-04-23 13:19 | 2.30894 | 102.13861 | 29381 ft | 508 kts | 125° |
| 2026-04-23 13:19 | 2.28785 | 102.16669 | 28525 ft | 503 kts | 125° |
| 2026-04-23 13:20 | 2.26686 | 102.19451 | 27718 ft | 498 kts | 125° |
| 2026-04-23 13:20 | 2.24609 | 102.22196 | 27105 ft | 490 kts | 125° |
| 2026-04-23 13:20 | 2.22578 | 102.24881 | 26780 ft | 477 kts | 125° |
| 2026-04-23 13:20 | 2.20643 | 102.27453 | 26486 ft | 463 kts | 124° |
| 2026-04-23 13:21 | 2.18741 | 102.29995 | 26196 ft | 450 kts | 124° |
| 2026-04-23 13:21 | 2.16899 | 102.32468 | 25893 ft | 438 kts | 124° |
| 2026-04-23 13:21 | 2.15103 | 102.34883 | 25606 ft | 426 kts | 123° |
| 2026-04-23 13:21 | 2.13355 | 102.37234 | 25323 ft | 416 kts | 124° |
| 2026-04-23 13:22 | 2.11657 | 102.39508 | 25033 ft | 397 kts | 124° |
| 2026-04-23 13:22 | 2.10036 | 102.41645 | 24557 ft | 377 kts | 124° |
| 2026-04-23 13:22 | 2.08460 | 102.43702 | 24114 ft | 370 kts | 124° |
| 2026-04-23 13:22 | 2.06914 | 102.45730 | 23894 ft | 364 kts | 124° |
| 2026-04-23 13:23 | 2.05383 | 102.47749 | 23859 ft | 364 kts | 124° |
| 2026-04-23 13:23 | 2.03860 | 102.49767 | 23857 ft | 364 kts | 124° |
| 2026-04-23 13:23 | 2.02338 | 102.51788 | 23859 ft | 364 kts | 124° |
| 2026-04-23 13:23 | 2.00820 | 102.53812 | 23859 ft | 364 kts | 123° |
| 2026-04-23 13:24 | 1.99303 | 102.55831 | 23859 ft | 364 kts | 124° |
| 2026-04-23 13:24 | 1.97797 | 102.57862 | 28526 ft | 363 kts | 120° |
| 2026-04-23 13:24 | 1.96312 | 102.59986 | 28228 ft | 384 kts | 123° |
| 2026-04-23 13:24 | 1.94728 | 102.62098 | 27584 ft | 375 kts | 124° |
| 2026-04-23 13:25 | 1.93131 | 102.64151 | 26496 ft | 374 kts | 125° |
| 2026-04-23 13:25 | 1.91525 | 102.66199 | 25518 ft | 372 kts | 125° |
| 2026-04-23 13:25 | 1.89945 | 102.68231 | 24715 ft | 368 kts | 124° |
| 2026-04-23 13:25 | 1.88382 | 102.70264 | 24184 ft | 370 kts | 124° |
| 2026-04-23 13:26 | 1.86832 | 102.72319 | 23923 ft | 367 kts | 123° |
| 2026-04-23 13:26 | 1.85311 | 102.74352 | 23859 ft | 364 kts | 123° |
| 2026-04-23 13:26 | 1.83802 | 102.76375 | 23851 ft | 362 kts | 123° |
| 2026-04-23 13:26 | 1.82294 | 102.78392 | 23852 ft | 362 kts | 123° |
| 2026-04-23 13:27 | 1.80782 | 102.80409 | 23852 ft | 363 kts | 123° |
| 2026-04-23 13:27 | 1.79266 | 102.82427 | 23852 ft | 363 kts | 123° |
| 2026-04-23 13:27 | 1.77750 | 102.84441 | 23851 ft | 363 kts | 124° |
| 2026-04-23 13:27 | 1.76254 | 102.86427 | 23849 ft | 362 kts | 124° |
| 2026-04-23 13:28 | 1.74755 | 102.88451 | 23855 ft | 362 kts | 121° |
| 2026-04-23 13:28 | 1.73421 | 102.90581 | 23848 ft | 360 kts | 116° |
| 2026-04-23 13:28 | 1.72194 | 102.92780 | 23848 ft | 362 kts | 115° |
| 2026-04-23 13:28 | 1.70996 | 102.94997 | 23850 ft | 362 kts | 115° |
| 2026-04-23 13:29 | 1.69814 | 102.97220 | 23852 ft | 362 kts | 115° |
| 2026-04-23 13:29 | 1.68635 | 102.99450 | 23853 ft | 362 kts | 115° |
| 2026-04-23 13:29 | 1.67458 | 103.01677 | 23854 ft | 362 kts | 115° |
| 2026-04-23 13:29 | 1.66277 | 103.03905 | 23855 ft | 363 kts | 115° |
| 2026-04-23 13:30 | 1.65091 | 103.06132 | 23849 ft | 363 kts | 115° |
| 2026-04-23 13:30 | 1.63758 | 103.08283 | 23849 ft | 365 kts | 122° |
| 2026-04-23 13:30 | 1.62170 | 103.10257 | 23850 ft | 365 kts | 129° |
| 2026-04-23 13:30 | 1.60329 | 103.11999 | 23850 ft | 365 kts | 137° |
| 2026-04-23 13:31 | 1.58253 | 103.13471 | 23849 ft | 366 kts | 145° |
| 2026-04-23 13:31 | 1.55983 | 103.14628 | 23849 ft | 367 kts | 154° |
| 2026-04-23 13:31 | 1.53597 | 103.15546 | 23853 ft | 366 kts | 156° |
| 2026-04-23 13:31 | 1.51216 | 103.16433 | 23849 ft | 365 kts | 155° |
| 2026-04-23 13:32 | 1.48874 | 103.17326 | 23831 ft | 364 kts | 155° |
| 2026-04-23 13:32 | 1.46525 | 103.18240 | 23490 ft | 360 kts | 154° |
| 2026-04-23 13:32 | 1.44196 | 103.19155 | 22953 ft | 359 kts | 154° |
| 2026-04-23 13:32 | 1.41883 | 103.20068 | 22443 ft | 356 kts | 154° |
| 2026-04-23 13:33 | 1.39589 | 103.20977 | 21957 ft | 354 kts | 154° |
| 2026-04-23 13:33 | 1.37305 | 103.21885 | 21430 ft | 352 kts | 154° |
| 2026-04-23 13:33 | 1.35035 | 103.22787 | 20976 ft | 349 kts | 154° |
| 2026-04-23 13:33 | 1.32792 | 103.23679 | 20550 ft | 345 kts | 154° |
| 2026-04-23 13:34 | 1.30567 | 103.24564 | 20101 ft | 342 kts | 154° |
| 2026-04-23 13:34 | 1.28357 | 103.25445 | 19585 ft | 342 kts | 154° |
| 2026-04-23 13:34 | 1.26155 | 103.26324 | 19149 ft | 339 kts | 154° |
| 2026-04-23 13:34 | 1.24042 | 103.27333 | 18786 ft | 334 kts | 147° |
| 2026-04-23 13:35 | 1.22030 | 103.28472 | 18409 ft | 329 kts | 146° |
| 2026-04-23 13:35 | 1.20074 | 103.29603 | 18210 ft | 319 kts | 146° |
| 2026-04-23 13:35 | 1.18186 | 103.30694 | 18007 ft | 309 kts | 146° |
| 2026-04-23 13:35 | 1.16356 | 103.31748 | 17791 ft | 299 kts | 146° |
| 2026-04-23 13:36 | 1.14581 | 103.32767 | 17574 ft | 289 kts | 146° |
| 2026-04-23 13:36 | 1.12859 | 103.33755 | 17382 ft | 280 kts | 146° |
| 2026-04-23 13:36 | 1.11200 | 103.34705 | 17191 ft | 270 kts | 146° |
| 2026-04-23 13:36 | 1.09593 | 103.35626 | 17025 ft | 261 kts | 146° |
| 2026-04-23 13:37 | 1.08062 | 103.36502 | 16829 ft | 253 kts | 146° |
| 2026-04-23 13:37 | 1.06550 | 103.37369 | 16564 ft | 248 kts | 146° |
| 2026-04-23 13:37 | 1.05061 | 103.38227 | 16223 ft | 246 kts | 146° |
| 2026-04-23 13:37 | 1.03580 | 103.39080 | 15895 ft | 244 kts | 146° |
| 2026-04-23 13:38 | 1.02112 | 103.39928 | 15526 ft | 245 kts | 146° |
| 2026-04-23 13:38 | 1.00608 | 103.40804 | 14931 ft | 256 kts | 146° |
| 2026-04-23 13:38 | 0.99121 | 103.41834 | 14365 ft | 265 kts | 135° |
| 2026-04-23 13:38 | 0.97991 | 103.43301 | 13871 ft | 270 kts | 112° |
| 2026-04-23 13:39 | 0.97490 | 103.45106 | 13408 ft | 272 kts | 94° |
| 2026-04-23 13:39 | 0.97331 | 103.47011 | 12884 ft | 276 kts | 91° |
| 2026-04-23 13:39 | 0.97217 | 103.48822 | 12473 ft | 275 kts | 91° |
| 2026-04-23 13:39 | 0.97095 | 103.50620 | 12136 ft | 273 kts | 92° |
| 2026-04-23 13:40 | 0.96957 | 103.52503 | 11755 ft | 271 kts | 92° |
| 2026-04-23 13:40 | 0.96815 | 103.54375 | 11381 ft | 269 kts | 92° |
| 2026-04-23 13:40 | 0.96685 | 103.56235 | 11004 ft | 268 kts | 90° |
| 2026-04-23 13:40 | 0.96770 | 103.58090 | 10659 ft | 267 kts | 81° |
| 2026-04-23 13:41 | 0.97013 | 103.59928 | 10242 ft | 267 kts | 79° |
| 2026-04-23 13:41 | 0.97276 | 103.61762 | 10029 ft | 266 kts | 80° |
| 2026-04-23 13:41 | 0.97537 | 103.63594 | 9980 ft | 266 kts | 80° |
| 2026-04-23 13:41 | 0.97796 | 103.65422 | 9981 ft | 266 kts | 80° |
| 2026-04-23 13:42 | 0.98053 | 103.67253 | 9981 ft | 266 kts | 80° |
| 2026-04-23 13:42 | 0.98306 | 103.69058 | 9981 ft | 266 kts | 80° |
| 2026-04-23 13:42 | 0.98564 | 103.70907 | 9983 ft | 266 kts | 80° |
| 2026-04-23 13:42 | 0.98817 | 103.72735 | 9981 ft | 266 kts | 80° |
| 2026-04-23 13:43 | 0.99069 | 103.74539 | 9982 ft | 265 kts | 80° |
| 2026-04-23 13:43 | 0.99326 | 103.76368 | 9981 ft | 265 kts | 80° |
| 2026-04-23 13:43 | 0.99582 | 103.78193 | 9982 ft | 266 kts | 80° |
| 2026-04-23 13:43 | 0.99838 | 103.80023 | 9986 ft | 266 kts | 80° |
| 2026-04-23 13:44 | 1.00093 | 103.81849 | 9984 ft | 265 kts | 80° |
| 2026-04-23 13:44 | 1.00349 | 103.83676 | 9986 ft | 266 kts | 80° |
| 2026-04-23 13:44 | 1.00600 | 103.85509 | 9987 ft | 266 kts | 80° |
| 2026-04-23 13:44 | 1.00842 | 103.87342 | 9779 ft | 268 kts | 81° |
| 2026-04-23 13:45 | 1.01005 | 103.88575 | 9473 ft | 269 kts | 81° |
| 2026-04-23 13:45 | 1.01323 | 103.91005 | 9027 ft | 264 kts | 81° |
| 2026-04-23 13:45 | 1.01559 | 103.92816 | 8661 ft | 262 kts | 80° |
| 2026-04-23 13:45 | 1.01794 | 103.94609 | 8304 ft | 260 kts | 80° |
| 2026-04-23 13:46 | 1.02110 | 103.96388 | 7961 ft | 258 kts | 72° |
| 2026-04-23 13:46 | 1.02884 | 103.97991 | 7607 ft | 257 kts | 54° |
| 2026-04-23 13:46 | 1.03919 | 103.99454 | 7169 ft | 258 kts | 51° |
| 2026-04-23 13:46 | 1.04982 | 104.00891 | 6731 ft | 255 kts | 51° |
| 2026-04-23 13:47 | 1.06023 | 104.02314 | 6162 ft | 253 kts | 51° |
| 2026-04-23 13:47 | 1.07051 | 104.03730 | 5589 ft | 250 kts | 51° |
| 2026-04-23 13:47 | 1.08067 | 104.05131 | 5019 ft | 248 kts | 51° |
| 2026-04-23 13:47 | 1.09074 | 104.06525 | 4500 ft | 246 kts | 51° |
| 2026-04-23 13:48 | 1.09733 | 104.07438 | 4200 ft | 243 kts | 52° |
| 2026-04-23 13:48 | 1.10727 | 104.08813 | 4041 ft | 245 kts | 52° |
| 2026-04-23 13:48 | 1.11725 | 104.10186 | 4018 ft | 243 kts | 52° |
| 2026-04-23 13:48 | 1.13041 | 104.11987 | 4020 ft | 241 kts | 50° |
| 2026-04-23 13:49 | 1.13787 | 104.12831 | 4025 ft | 240 kts | 40° |
| 2026-04-23 13:49 | 1.15184 | 104.13720 | 4018 ft | 238 kts | 22° |
| 2026-04-23 13:49 | 1.16720 | 104.14380 | 4016 ft | 242 kts | 19° |
| 2026-04-23 13:49 | 1.18285 | 104.15020 | 3682 ft | 243 kts | 20° |
| 2026-04-23 13:50 | 1.19801 | 104.15658 | 3360 ft | 228 kts | 21° |
| 2026-04-23 13:50 | 1.21209 | 104.16263 | 3097 ft | 212 kts | 21° |
| 2026-04-23 13:50 | 1.22538 | 104.16835 | 3018 ft | 206 kts | 21° |
| 2026-04-23 13:50 | 1.23829 | 104.17386 | 3041 ft | 204 kts | 21° |
| 2026-04-23 13:51 | 1.25134 | 104.17943 | 3016 ft | 204 kts | 20° |
| 2026-04-23 13:51 | 1.26439 | 104.18499 | 3012 ft | 204 kts | 21° |
| 2026-04-23 13:51 | 1.27747 | 104.19056 | 3010 ft | 204 kts | 21° |
| 2026-04-23 13:51 | 1.29069 | 104.19573 | 3013 ft | 204 kts | 14° |
| 2026-04-23 13:52 | 1.30452 | 104.19480 | 3015 ft | 202 kts | 333° |
| 2026-04-23 13:52 | 1.31563 | 104.18623 | 3011 ft | 205 kts | 311° |
| 2026-04-23 13:52 | 1.32516 | 104.17581 | 3006 ft | 201 kts | 308° |
| 2026-04-23 13:52 | 1.33434 | 104.16543 | 3003 ft | 198 kts | 308° |
| 2026-04-23 13:53 | 1.34346 | 104.15510 | 3001 ft | 198 kts | 308° |
| 2026-04-23 13:53 | 1.35256 | 104.14477 | 3002 ft | 199 kts | 308° |
| 2026-04-23 13:53 | 1.36147 | 104.13420 | 3005 ft | 198 kts | 303° |
| 2026-04-23 13:53 | 1.36532 | 104.12130 | 2986 ft | 196 kts | 262° |
| 2026-04-23 13:54 | 1.35992 | 104.10934 | 2984 ft | 190 kts | 220° |
| 2026-04-23 13:54 | 1.34928 | 104.10151 | 3004 ft | 192 kts | 206° |
| 2026-04-23 13:54 | 1.33757 | 104.09500 | 2934 ft | 191 kts | 203° |
| 2026-04-23 13:54 | 1.32571 | 104.08861 | 2629 ft | 198 kts | 203° |
| 2026-04-23 13:55 | 1.31336 | 104.08201 | 2524 ft | 204 kts | 203° |
| 2026-04-23 13:55 | 1.30088 | 104.07541 | 2511 ft | 206 kts | 203° |
| 2026-04-23 13:55 | 1.28823 | 104.06865 | 2513 ft | 207 kts | 203° |
| 2026-04-23 13:55 | 1.27559 | 104.06187 | 2495 ft | 207 kts | 203° |
| 2026-04-23 13:56 | 1.26286 | 104.05505 | 2495 ft | 206 kts | 203° |
| 2026-04-23 13:56 | 1.25024 | 104.04826 | 2494 ft | 206 kts | 203° |
| 2026-04-23 13:56 | 1.23767 | 104.04155 | 2474 ft | 200 kts | 203° |
| 2026-04-23 13:56 | 1.22556 | 104.03512 | 2494 ft | 196 kts | 202° |
| 2026-04-23 13:57 | 1.21421 | 104.02910 | 2490 ft | 196 kts | 203° |
| 2026-04-23 13:57 | 1.20216 | 104.02268 | 2495 ft | 197 kts | 203° |
| 2026-04-23 13:57 | 1.19011 | 104.01625 | 2493 ft | 196 kts | 203° |
| 2026-04-23 13:57 | 1.17809 | 104.00982 | 2493 ft | 196 kts | 203° |
| 2026-04-23 13:58 | 1.16606 | 104.00337 | 2492 ft | 196 kts | 203° |
| 2026-04-23 13:58 | 1.15403 | 103.99689 | 2496 ft | 196 kts | 204° |
| 2026-04-23 13:58 | 1.14214 | 103.99057 | 2492 ft | 196 kts | 202° |
| 2026-04-23 13:58 | 1.13017 | 103.98404 | 2476 ft | 197 kts | 206° |
| 2026-04-23 13:59 | 1.12052 | 103.97423 | 2500 ft | 202 kts | 238° |
| 2026-04-23 13:59 | 1.11683 | 103.96081 | 2510 ft | 200 kts | 262° |
| 2026-04-23 13:59 | 1.11649 | 103.94703 | 2519 ft | 197 kts | 267° |
| 2026-04-23 13:59 | 1.11676 | 103.93329 | 2504 ft | 198 kts | 268° |
| 2026-04-23 14:00 | 1.11702 | 103.92401 | 2498 ft | 198 kts | 268° |
| 2026-04-23 14:00 | 1.11945 | 103.90589 | 2513 ft | 202 kts | 284° |
| 2026-04-23 14:00 | 1.12558 | 103.89357 | 2476 ft | 198 kts | 311° |
| 2026-04-23 14:00 | 1.13746 | 103.88738 | 2515 ft | 194 kts | 351° |
| 2026-04-23 14:01 | 1.15038 | 103.89021 | 2517 ft | 192 kts | 26° |
| 2026-04-23 14:01 | 1.16175 | 103.89667 | 2494 ft | 185 kts | 26° |
| 2026-04-23 14:01 | 1.17326 | 103.90241 | 2512 ft | 184 kts | 22° |
| 2026-04-23 14:01 | 1.18495 | 103.90751 | 2512 ft | 181 kts | 21° |
| 2026-04-23 14:02 | 1.19656 | 103.91235 | 2515 ft | 180 kts | 19° |
| 2026-04-23 14:02 | 1.20819 | 103.91704 | 2510 ft | 180 kts | 20° |
| 2026-04-23 14:02 | 1.21972 | 103.92184 | 2513 ft | 180 kts | 21° |
| 2026-04-23 14:02 | 1.23126 | 103.92686 | 2440 ft | 180 kts | 22° |
| 2026-04-23 14:03 | 1.24260 | 103.93214 | 2241 ft | 180 kts | 22° |
| 2026-04-23 14:03 | 1.25391 | 103.93703 | 1993 ft | 178 kts | 20° |
| 2026-04-23 14:03 | 1.26534 | 103.94175 | 1764 ft | 177 kts | 21° |
| 2026-04-23 14:03 | 1.27639 | 103.94644 | 1545 ft | 169 kts | 21° |
| 2026-04-23 14:04 | 1.28703 | 103.95099 | 1293 ft | 164 kts | 20° |
| 2026-04-23 14:04 | 1.29733 | 103.95538 | 1085 ft | 155 kts | 21° |
| 2026-04-23 14:04 | 1.30687 | 103.95947 | 895 ft | 143 kts | 21° |
| 2026-04-23 14:04 | 1.31569 | 103.96324 | 729 ft | 135 kts | 21° |
| 2026-04-23 14:05 | 1.32430 | 103.96689 | 623 ft | 138 kts | 21° |
| 2026-04-23 14:05 | 1.33306 | 103.97083 | 413 ft | 135 kts | 24° |
| 2026-04-23 14:05 | 1.34165 | 103.97435 | 213 ft | 135 kts | 26° |
| 2026-04-23 14:05 | 1.35033 | 103.97803 | 54 ft | 138 kts | 24° |
| 2026-04-23 14:06 | 1.35853 | 103.98156 | 35 ft | 101 kts | 22° |
| 2026-04-23 14:06 | 1.36108 | 103.98262 | 34 ft | 0 kts | 22° |
| 2026-04-23 14:06 | 1.36167 | 103.98286 | 34 ft | 26 kts | 23° |
| 2026-04-23 14:06 | 1.36412 | 103.98389 | 36 ft | 42 kts | 22° |
| 2026-04-23 14:07 | 1.36648 | 103.98512 | 37 ft | 37 kts | 38° |
| 2026-04-23 14:07 | 1.36771 | 103.98652 | 34 ft | 0 kts | 52° |
| 2026-04-23 14:08 | 1.36775 | 103.98657 | 34 ft | 7 kts | 52° |
| 2026-04-23 14:08 | 1.36814 | 103.98734 | 33 ft | 3 kts | 105° |
| 2026-04-23 14:08 | 1.36797 | 103.98736 | 33 ft | 8 kts | 185° |
| 2026-04-23 14:08 | 1.36739 | 103.98717 | 32 ft | 0 kts | 201° |
| 2026-04-23 14:09 | 1.36702 | 103.98703 | 32 ft | 9 kts | 201° |
| 2026-04-23 14:09 | 1.36631 | 103.98675 | 31 ft | 13 kts | 203° |
| 2026-04-23 14:09 | 1.36540 | 103.98636 | 33 ft | 16 kts | 203° |
| 2026-04-23 14:09 | 1.36527 | 103.98630 | 33 ft | 0 kts | 202° |
| 2026-04-23 14:11 | 1.36518 | 103.98627 | 33 ft | 7 kts | 202° |
| 2026-04-23 14:11 | 1.36491 | 103.98617 | 33 ft | 9 kts | 196° |
| 2026-04-23 14:11 | 1.36421 | 103.98643 | 32 ft | 8 kts | 127° |
| 2026-04-23 14:11 | 1.36393 | 103.98719 | 32 ft | 7 kts | 101° |
| 2026-04-23 14:12 | 1.36427 | 103.98778 | 31 ft | 14 kts | 30° |
| 2026-04-23 14:12 | 1.36538 | 103.98811 | 31 ft | 19 kts | 357° |
| 2026-04-23 14:12 | 1.36645 | 103.98811 | 31 ft | 13 kts | 24° |
| 2026-04-23 14:12 | 1.36665 | 103.98836 | 31 ft | 0 kts | 68° |
| 2026-04-23 14:13 | 1.36662 | 103.98826 | 31 ft | 2 kts | 123° |
| 2026-04-23 14:13 | 1.36661 | 103.98824 | 31 ft | 3 kts | 155° |
| 2026-04-23 14:13 | 1.36589 | 103.98816 | 31 ft | 20 kts | 178° |
| 2026-04-23 14:13 | 1.36509 | 103.98872 | 31 ft | 2 kts | 114° |
| 2026-04-23 14:14 | 1.36496 | 103.98898 | 31 ft | 6 kts | 117° |
| 2026-04-23 14:14 | 1.36481 | 103.98925 | 31 ft | 1 kts | 118° |